Observation data for Welch on 05/15/2018      Previous  Date       Current Mesonet Observations  Soil Data  Daily Summary Page  Observations in Plain Language
KWE2 150500Z 17016KT 22/17 A2995 RMK A01 T02240167  RH  070%=      5-min Rain = 0
KWE2 150501Z 17016KT 23/17 A2995 RMK A01 T02250168  RH  070%=      5-min Rain = 0
KWE2 150502Z 17017KT 23/17 A2995 RMK A01 T02250169  RH  071%=      5-min Rain = 0
KWE2 150503Z 17015KT 22/17 A2995 RMK A01 T02240169  RH  071%=      5-min Rain = 0
KWE2 150504Z 17015KT 22/17 A2995 RMK A01 T02240169  RH  071%=      5-min Rain = 0
KWE2 150505Z 17016KT 22/17 A2995 RMK A01 T02240169  RH  071%=      5-min Rain = 0
KWE2 150506Z 17016KT 22/17 A2995 RMK A01 T02230170  RH  072%=      5-min Rain = 0
KWE2 150507Z 17015KT 22/17 A2995 RMK A01 T02240170  RH  072%=      5-min Rain = 0
KWE2 150508Z 18018KT 22/17 A2995 RMK A01 T02230171  RH  072%=      5-min Rain = 0
KWE2 150509Z 17017KT 22/17 A2995 RMK A01 T02230171  RH  072%=      5-min Rain = 0
KWE2 150510Z 17017G22KT 22/17 A2995 RMK A01 T02240172  RH  072%=      5-min Rain = 0
KWE2 150511Z 17015KT 22/17 A2995 RMK A01 T02230172  RH  072%=      5-min Rain = 0
KWE2 150512Z 17017KT 22/17 A2995 RMK A01 T02230172  RH  073%=      5-min Rain = 0
KWE2 150513Z 17018KT 22/17 A2995 RMK A01 T02230173  RH  073%=      5-min Rain = 0
KWE2 150514Z 17018KT 22/17 A2995 RMK A01 T02230173  RH  073%=      5-min Rain = 0
KWE2 150515Z 17020KT 22/17 A2995 RMK A01 T02230174  RH  074%=      5-min Rain = 0
KWE2 150516Z 18016KT 22/18 A2995 RMK A01 T02240175  RH  074%=      5-min Rain = 0
KWE2 150517Z 17018KT 22/18 A2996 RMK A01 T02240175  RH  074%=      5-min Rain = 0
KWE2 150518Z 17016KT 22/18 A2996 RMK A01 T02240175  RH  074%=      5-min Rain = 0
KWE2 150519Z 17016KT 22/18 A2996 RMK A01 T02230175  RH  074%=      5-min Rain = 0
KWE2 150520Z 17017KT 22/18 A2996 RMK A01 T02230175  RH  074%=      5-min Rain = 0
KWE2 150521Z 17017KT 22/18 A2996 RMK A01 T02230176  RH  075%=      5-min Rain = 0
KWE2 150522Z 18017KT 22/18 A2996 RMK A01 T02230176  RH  075%=      5-min Rain = 0
KWE2 150523Z 18019G24KT 22/18 A2996 RMK A01 T02230177  RH  075%=      5-min Rain = 0
KWE2 150524Z 18018KT 22/18 A2996 RMK A01 T02230177  RH  075%=      5-min Rain = 0
KWE2 150525Z 18016KT 22/18 A2996 RMK A01 T02230176  RH  075%=      5-min Rain = 0
KWE2 150526Z 17017G22KT 22/18 A2996 RMK A01 T02220176  RH  075%=      5-min Rain = 0
KWE2 150527Z 18018KT 22/18 A2996 RMK A01 T02220177  RH  075%=      5-min Rain = 0
KWE2 150528Z 17017G24KT 22/18 A2996 RMK A01 T02220176  RH  075%=      5-min Rain = 0
KWE2 150529Z 17021KT 22/18 A2996 RMK A01 T02220177  RH  076%=      5-min Rain = 0
KWE2 150530Z 18019KT 22/18 A2996 RMK A01 T02220177  RH  076%=      5-min Rain = 0
KWE2 150531Z 17018KT 22/18 A2996 RMK A01 T02220177  RH  076%=      5-min Rain = 0
KWE2 150532Z 17017KT 22/18 A2996 RMK A01 T02220177  RH  076%=      5-min Rain = 0
KWE2 150533Z 17018KT 22/18 A2996 RMK A01 T02210177  RH  076%=      5-min Rain = 0
KWE2 150534Z 17018KT 22/18 A2996 RMK A01 T02210177  RH  076%=      5-min Rain = 0
KWE2 150535Z 17017KT 22/18 A2996 RMK A01 T02210177  RH  076%=      5-min Rain = 0
KWE2 150536Z 18018KT 22/18 A2996 RMK A01 T02210176  RH  076%=      5-min Rain = 0
KWE2 150537Z 18016KT 22/18 A2996 RMK A01 T02200176  RH  076%=      5-min Rain = 0
KWE2 150538Z 18014KT 22/18 A2996 RMK A01 T02200176  RH  076%=      5-min Rain = 0
KWE2 150539Z 18015KT 22/18 A2996 RMK A01 T02200176  RH  076%=      5-min Rain = 0
KWE2 150540Z 18017KT 22/18 A2996 RMK A01 T02190176  RH  076%=      5-min Rain = 0
KWE2 150541Z 18017KT 22/18 A2996 RMK A01 T02190176  RH  076%=      5-min Rain = 0
KWE2 150542Z 18017KT 22/18 A2996 RMK A01 T02190176  RH  076%=      5-min Rain = 0
KWE2 150543Z 18015KT 22/18 A2996 RMK A01 T02190176  RH  076%=      5-min Rain = 0
KWE2 150544Z 18015KT 22/18 A2996 RMK A01 T02190176  RH  076%=      5-min Rain = 0
KWE2 150545Z 18017KT 22/18 A2996 RMK A01 T02190176  RH  077%=      5-min Rain = 0
KWE2 150546Z 18018KT 22/18 A2996 RMK A01 T02190176  RH  077%=      5-min Rain = 0
KWE2 150547Z 18016KT 22/18 A2997 RMK A01 T02190176  RH  077%=      5-min Rain = 0
KWE2 150548Z 17017KT 22/18 A2997 RMK A01 T02190176  RH  077%=      5-min Rain = 0
KWE2 150549Z 18016KT 22/18 A2997 RMK A01 T02190176  RH  077%=      5-min Rain = 0
KWE2 150550Z 17017KT 22/18 A2997 RMK A01 T02190176  RH  077%=      5-min Rain = 0
KWE2 150551Z 18015KT 22/18 A2997 RMK A01 T02180176  RH  077%=      5-min Rain = 0
KWE2 150552Z 17017KT 22/18 A2997 RMK A01 T02180176  RH  077%=      5-min Rain = 0
KWE2 150553Z 18016KT 22/18 A2997 RMK A01 T02180176  RH  077%=      5-min Rain = 0
KWE2 150554Z 18015KT 22/18 A2997 RMK A01 T02180176  RH  077%=      5-min Rain = 0
KWE2 150555Z 18017KT 22/18 A2997 RMK A01 T02180176  RH  077%=      5-min Rain = 0
KWE2 150556Z 18015KT 22/18 A2997 RMK A01 T02180176  RH  077%=      5-min Rain = 0
KWE2 150557Z 18015KT 22/18 A2997 RMK A01 T02170175  RH  077%=      5-min Rain = 0
KWE2 150558Z 18018KT 22/18 A2997 RMK A01 T02170176  RH  077%=      5-min Rain = 0
KWE2 150559Z 18017KT 22/18 A2997 RMK A01 T02170176  RH  077%=      5-min Rain = 0
KWE2 150600Z 18016KT 22/18 A2997 RMK A01 T02170176  RH  077%=      5-min Rain = 0
KWE2 150601Z 18018KT 22/18 A2997 RMK A01 T02170176  RH  077%=      5-min Rain = 0
KWE2 150602Z 18017KT 22/18 A2997 RMK A01 T02170176  RH  077%=      5-min Rain = 0
KWE2 150603Z 18017KT 22/18 A2997 RMK A01 T02170176  RH  078%=      5-min Rain = 0
KWE2 150604Z 18015KT 22/18 A2997 RMK A01 T02170176  RH  078%=      5-min Rain = 0
KWE2 150605Z 18017KT 22/18 A2997 RMK A01 T02170176  RH  078%=      5-min Rain = 0
KWE2 150606Z 18017KT 22/18 A2997 RMK A01 T02170176  RH  078%=      5-min Rain = 0
KWE2 150607Z 18016KT 22/18 A2997 RMK A01 T02160176  RH  078%=      5-min Rain = 0
KWE2 150608Z 18017KT 22/18 A2997 RMK A01 T02160176  RH  078%=      5-min Rain = 0
KWE2 150609Z 18018KT 22/18 A2997 RMK A01 T02160176  RH  078%=      5-min Rain = 0
KWE2 150610Z 18017KT 22/18 A2997 RMK A01 T02160176  RH  078%=      5-min Rain = 0
KWE2 150611Z 18015KT 22/18 A2997 RMK A01 T02160176  RH  078%=      5-min Rain = 0
KWE2 150612Z 18016KT 22/18 A2997 RMK A01 T02160176  RH  078%=      5-min Rain = 0
KWE2 150613Z 18013KT 22/18 A2997 RMK A01 T02160176  RH  078%=      5-min Rain = 0
KWE2 150614Z 18016KT 22/18 A2997 RMK A01 T02150176  RH  078%=      5-min Rain = 0
KWE2 150615Z 18018KT 22/18 A2997 RMK A01 T02150176  RH  078%=      5-min Rain = 0
KWE2 150616Z 18016KT 22/18 A2997 RMK A01 T02150176  RH  078%=      5-min Rain = 0
KWE2 150617Z 18017G22KT 22/18 A2997 RMK A01 T02150176  RH  078%=      5-min Rain = 0
KWE2 150618Z 18018KT 22/18 A2997 RMK A01 T02150176  RH  079%=      5-min Rain = 0
KWE2 150619Z 18017KT 22/18 A2997 RMK A01 T02150176  RH  078%=      5-min Rain = 0
KWE2 150620Z 18017KT 22/18 A2997 RMK A01 T02150176  RH  079%=      5-min Rain = 0
KWE2 150621Z 18016KT 22/18 A2997 RMK A01 T02150176  RH  079%=      5-min Rain = 0
KWE2 150622Z 18018KT 21/18 A2997 RMK A01 T02140176  RH  079%=      5-min Rain = 0
KWE2 150623Z 18018KT 21/18 A2997 RMK A01 T02140176  RH  079%=      5-min Rain = 0
KWE2 150624Z 18019KT 21/18 A2997 RMK A01 T02140176  RH  079%=      5-min Rain = 0
KWE2 150625Z 18016KT 21/18 A2997 RMK A01 T02140176  RH  079%=      5-min Rain = 0
KWE2 150626Z 18015KT 21/18 A2997 RMK A01 T02140175  RH  079%=      5-min Rain = 0
KWE2 150627Z 18018KT 21/18 A2997 RMK A01 T02130175  RH  079%=      5-min Rain = 0
KWE2 150628Z 18017KT 21/18 A2997 RMK A01 T02130175  RH  079%=      5-min Rain = 0
KWE2 150629Z 18016KT 21/18 A2997 RMK A01 T02130175  RH  079%=      5-min Rain = 0
KWE2 150630Z 18015KT 21/18 A2997 RMK A01 T02130175  RH  079%=      5-min Rain = 0
KWE2 150631Z 18018KT 21/18 A2997 RMK A01 T02130175  RH  079%=      5-min Rain = 0
KWE2 150632Z 18018KT 21/18 A2997 RMK A01 T02130175  RH  079%=      5-min Rain = 0
KWE2 150633Z 18017KT 21/18 A2997 RMK A01 T02120175  RH  079%=      5-min Rain = 0
KWE2 150634Z 18018KT 21/18 A2997 RMK A01 T02120175  RH  079%=      5-min Rain = 0
KWE2 150635Z 18016KT 21/18 A2997 RMK A01 T02120175  RH  079%=      5-min Rain = 0
KWE2 150636Z 18017KT 21/18 A2997 RMK A01 T02120175  RH  079%=      5-min Rain = 0
KWE2 150637Z 18016G21KT 21/17 A2997 RMK A01 T02120174  RH  079%=      5-min Rain = 0
KWE2 150638Z 18017KT 21/17 A2997 RMK A01 T02110174  RH  079%=      5-min Rain = 0
KWE2 150639Z 17017KT 21/17 A2997 RMK A01 T02110174  RH  079%=      5-min Rain = 0
KWE2 150640Z 17018KT 21/17 A2997 RMK A01 T02110174  RH  079%=      5-min Rain = 0
KWE2 150641Z 17016KT 21/17 A2997 RMK A01 T02110174  RH  079%=      5-min Rain = 0
KWE2 150642Z 17016KT 21/17 A2997 RMK A01 T02110174  RH  079%=      5-min Rain = 0
KWE2 150643Z 17015KT 21/17 A2997 RMK A01 T02100173  RH  079%=      5-min Rain = 0
KWE2 150644Z 17016KT 21/17 A2997 RMK A01 T02100173  RH  079%=      5-min Rain = 0
KWE2 150645Z 17015KT 21/17 A2997 RMK A01 T02100173  RH  079%=      5-min Rain = 0
KWE2 150646Z 17015KT 21/17 A2997 RMK A01 T02100173  RH  079%=      5-min Rain = 0
KWE2 150647Z 17015KT 21/17 A2997 RMK A01 T02090172  RH  079%=      5-min Rain = 0
KWE2 150648Z 17016KT 21/17 A2997 RMK A01 T02090172  RH  079%=      5-min Rain = 0
KWE2 150649Z 17016KT 21/17 A2997 RMK A01 T02090172  RH  079%=      5-min Rain = 0
KWE2 150650Z 17014KT 21/17 A2997 RMK A01 T02090172  RH  079%=      5-min Rain = 0
KWE2 150651Z 17019KT 21/17 A2997 RMK A01 T02080171  RH  079%=      5-min Rain = 0
KWE2 150652Z 17017KT 21/17 A2997 RMK A01 T02080171  RH  079%=      5-min Rain = 0
KWE2 150653Z 17015KT 21/17 A2997 RMK A01 T02090171  RH  079%=      5-min Rain = 0
KWE2 150654Z 17018KT 21/17 A2997 RMK A01 T02080171  RH  079%=      5-min Rain = 0
KWE2 150655Z 17016KT 21/17 A2997 RMK A01 T02080171  RH  079%=      5-min Rain = 0
KWE2 150656Z 17016KT 21/17 A2997 RMK A01 T02080171  RH  079%=      5-min Rain = 0
KWE2 150657Z 17018KT 21/17 A2997 RMK A01 T02080171  RH  079%=      5-min Rain = 0
KWE2 150658Z 17017KT 21/17 A2997 RMK A01 T02080171  RH  079%=      5-min Rain = 0
KWE2 150659Z 17015KT 21/17 A2997 RMK A01 T02080171  RH  079%=      5-min Rain = 0
KWE2 150700Z 17015KT 21/17 A2997 RMK A01 T02080171  RH  079%=      5-min Rain = 0
KWE2 150701Z 17016KT 21/17 A2997 RMK A01 T02070171  RH  080%=      5-min Rain = 0
KWE2 150702Z 17017KT 21/17 A2997 RMK A01 T02070171  RH  080%=      5-min Rain = 0
KWE2 150703Z 17015KT 21/17 A2997 RMK A01 T02070170  RH  080%=      5-min Rain = 0
KWE2 150704Z 17018KT 21/17 A2997 RMK A01 T02070171  RH  080%=      5-min Rain = 0
KWE2 150705Z 17016KT 21/17 A2997 RMK A01 T02070171  RH  080%=      5-min Rain = 0
KWE2 150706Z 17014KT 21/17 A2997 RMK A01 T02070170  RH  080%=      5-min Rain = 0
KWE2 150707Z 18014KT 21/17 A2997 RMK A01 T02060170  RH  080%=      5-min Rain = 0
KWE2 150708Z 17020KT 21/17 A2997 RMK A01 T02060170  RH  080%=      5-min Rain = 0
KWE2 150709Z 18019KT 21/17 A2997 RMK A01 T02060171  RH  080%=      5-min Rain = 0
KWE2 150710Z 18019KT 21/17 A2997 RMK A01 T02060170  RH  080%=      5-min Rain = 0
KWE2 150711Z 18016KT 21/17 A2997 RMK A01 T02060170  RH  080%=      5-min Rain = 0
KWE2 150712Z 18015KT 21/17 A2998 RMK A01 T02060170  RH  080%=      5-min Rain = 0
KWE2 150713Z 18019KT 21/17 A2997 RMK A01 T02060170  RH  080%=      5-min Rain = 0
KWE2 150714Z 17017KT 21/17 A2997 RMK A01 T02060170  RH  080%=      5-min Rain = 0
KWE2 150715Z 18018KT 21/17 A2997 RMK A01 T02060170  RH  080%=      5-min Rain = 0
KWE2 150716Z 18016G21KT 21/17 A2997 RMK A01 T02060171  RH  080%=      5-min Rain = 0
KWE2 150717Z 18017KT 21/17 A2997 RMK A01 T02060170  RH  080%=      5-min Rain = 0
KWE2 150718Z 18019KT 21/17 A2997 RMK A01 T02060171  RH  080%=      5-min Rain = 0
KWE2 150719Z 18019KT 21/17 A2997 RMK A01 T02060170  RH  080%=      5-min Rain = 0
KWE2 150720Z 18019KT 21/17 A2997 RMK A01 T02060170  RH  080%=      5-min Rain = 0
KWE2 150721Z 18017KT 21/17 A2997 RMK A01 T02060170  RH  080%=      5-min Rain = 0
KWE2 150722Z 18018KT 21/17 A2997 RMK A01 T02060170  RH  080%=      5-min Rain = 0
KWE2 150723Z 18018KT 21/17 A2997 RMK A01 T02060170  RH  080%=      5-min Rain = 0
KWE2 150724Z 18017KT 21/17 A2997 RMK A01 T02060170  RH  080%=      5-min Rain = 0
KWE2 150725Z 18019KT 21/17 A2997 RMK A01 T02060171  RH  080%=      5-min Rain = 0
KWE2 150726Z 19020KT 21/17 A2997 RMK A01 T02060171  RH  080%=      5-min Rain = 0
KWE2 150727Z 18017G22KT 21/17 A2997 RMK A01 T02060170  RH  080%=      5-min Rain = 0
KWE2 150728Z 18020KT 21/17 A2997 RMK A01 T02060171  RH  080%=      5-min Rain = 0
KWE2 150729Z 18020G25KT 21/17 A2997 RMK A01 T02070171  RH  080%=      5-min Rain = 0
KWE2 150730Z 18017KT 21/17 A2997 RMK A01 T02070170  RH  080%=      5-min Rain = 0
KWE2 150731Z 18020KT 21/17 A2997 RMK A01 T02070171  RH  080%=      5-min Rain = 0
KWE2 150732Z 18020G25KT 21/17 A2997 RMK A01 T02070171  RH  080%=      5-min Rain = 0
KWE2 150733Z 18020G26KT 21/17 A2997 RMK A01 T02070171  RH  080%=      5-min Rain = 0
KWE2 150734Z 18020KT 21/17 A2997 RMK A01 T02070171  RH  080%=      5-min Rain = 0
KWE2 150735Z 18018KT 21/17 A2997 RMK A01 T02070171  RH  080%=      5-min Rain = 0
KWE2 150736Z 18020KT 21/17 A2997 RMK A01 T02070171  RH  080%=      5-min Rain = 0
KWE2 150737Z 18021KT 21/17 A2997 RMK A01 T02060172  RH  080%=      5-min Rain = 0
KWE2 150738Z 18020KT 21/17 A2997 RMK A01 T02060172  RH  080%=      5-min Rain = 0
KWE2 150739Z 18018G23KT 21/17 A2997 RMK A01 T02070172  RH  081%=      5-min Rain = 0
KWE2 150740Z 18017KT 21/17 A2997 RMK A01 T02060172  RH  080%=      5-min Rain = 0
KWE2 150741Z 18017KT 21/17 A2997 RMK A01 T02060172  RH  081%=      5-min Rain = 0
KWE2 150742Z 18018KT 21/17 A2997 RMK A01 T02050172  RH  081%=      5-min Rain = 0
KWE2 150743Z 18019G25KT 21/17 A2996 RMK A01 T02060172  RH  081%=      5-min Rain = 0
KWE2 150744Z 18018KT 21/17 A2996 RMK A01 T02060172  RH  081%=      5-min Rain = 0
KWE2 150745Z 18017G22KT 21/17 A2996 RMK A01 T02060172  RH  081%=      5-min Rain = 0
KWE2 150746Z 18018G23KT 21/17 A2997 RMK A01 T02060172  RH  081%=      5-min Rain = 0
KWE2 150747Z 18018G24KT 21/17 A2996 RMK A01 T02050172  RH  081%=      5-min Rain = 0
KWE2 150748Z 18019KT 21/17 A2996 RMK A01 T02050173  RH  082%=      5-min Rain = 0
KWE2 150749Z 18019KT 21/17 A2996 RMK A01 T02050172  RH  082%=      5-min Rain = 0
KWE2 150750Z 18016KT 21/17 A2996 RMK A01 T02060173  RH  081%=      5-min Rain = 0
KWE2 150751Z 18017G22KT 21/17 A2996 RMK A01 T02050173  RH  081%=      5-min Rain = 0
KWE2 150752Z 18019KT 21/17 A2996 RMK A01 T02050173  RH  082%=      5-min Rain = 0
KWE2 150753Z 18017KT 21/17 A2996 RMK A01 T02050173  RH  082%=      5-min Rain = 0
KWE2 150754Z 18016KT 21/17 A2996 RMK A01 T02050173  RH  082%=      5-min Rain = 0
KWE2 150755Z 18020KT 21/17 A2996 RMK A01 T02050173  RH  082%=      5-min Rain = 0
KWE2 150756Z 18016KT 21/17 A2997 RMK A01 T02050173  RH  082%=      5-min Rain = 0
KWE2 150757Z 18017KT 21/17 A2996 RMK A01 T02050173  RH  082%=      5-min Rain = 0
KWE2 150758Z 18017KT 20/17 A2997 RMK A01 T02040173  RH  082%=      5-min Rain = 0
KWE2 150759Z 18018KT 20/17 A2997 RMK A01 T02040173  RH  082%=      5-min Rain = 0
KWE2 150800Z 18017G22KT 20/17 A2997 RMK A01 T02040173  RH  082%=      5-min Rain = 0
KWE2 150801Z 19017KT 20/17 A2997 RMK A01 T02040173  RH  082%=      5-min Rain = 0
KWE2 150802Z 18016KT 20/17 A2997 RMK A01 T02040173  RH  082%=      5-min Rain = 0
KWE2 150803Z 18016KT 20/17 A2997 RMK A01 T02040173  RH  082%=      5-min Rain = 0
KWE2 150804Z 18018G23KT 20/17 A2997 RMK A01 T02040174  RH  083%=      5-min Rain = 0
KWE2 150805Z 18019KT 20/17 A2997 RMK A01 T02040174  RH  083%=      5-min Rain = 0
KWE2 150806Z 19018KT 20/17 A2997 RMK A01 T02040174  RH  083%=      5-min Rain = 0
KWE2 150807Z 19017KT 20/17 A2997 RMK A01 T02040174  RH  083%=      5-min Rain = 0
KWE2 150808Z 19016KT 20/17 A2997 RMK A01 T02040174  RH  083%=      5-min Rain = 0
KWE2 150809Z 19017KT 20/17 A2997 RMK A01 T02040174  RH  083%=      5-min Rain = 0
KWE2 150810Z 19015KT 20/17 A2997 RMK A01 T02040174  RH  083%=      5-min Rain = 0
KWE2 150811Z 19017KT 20/17 A2997 RMK A01 T02040174  RH  083%=      5-min Rain = 0
KWE2 150812Z 19016KT 20/17 A2997 RMK A01 T02040174  RH  083%=      5-min Rain = 0
KWE2 150813Z 19017KT 20/18 A2997 RMK A01 T02030175  RH  084%=      5-min Rain = 0
KWE2 150814Z 19017KT 20/18 A2997 RMK A01 T02030175  RH  084%=      5-min Rain = 0
KWE2 150815Z 18018KT 20/18 A2997 RMK A01 T02030175  RH  084%=      5-min Rain = 0
KWE2 150816Z 18018KT 20/18 A2997 RMK A01 T02030175  RH  084%=      5-min Rain = 0
KWE2 150817Z 19016KT 20/18 A2997 RMK A01 T02030175  RH  084%=      5-min Rain = 0
KWE2 150818Z 18017KT 20/18 A2997 RMK A01 T02030175  RH  084%=      5-min Rain = 0
KWE2 150819Z 18015KT 20/18 A2997 RMK A01 T02030175  RH  084%=      5-min Rain = 0
KWE2 150820Z 18017KT 20/18 A2997 RMK A01 T02030176  RH  084%=      5-min Rain = 0
KWE2 150821Z 18018KT 20/18 A2997 RMK A01 T02030176  RH  084%=      5-min Rain = 0
KWE2 150822Z 18016KT 20/18 A2997 RMK A01 T02030175  RH  084%=      5-min Rain = 0
KWE2 150823Z 18015KT 20/18 A2997 RMK A01 T02030175  RH  084%=      5-min Rain = 0
KWE2 150824Z 18015G20KT 20/18 A2997 RMK A01 T02030176  RH  084%=      5-min Rain = 0
KWE2 150825Z 19015KT 20/18 A2997 RMK A01 T02020176  RH  085%=      5-min Rain = 0
KWE2 150826Z 19016KT 20/18 A2997 RMK A01 T02030176  RH  085%=      5-min Rain = 0
KWE2 150827Z 18016KT 20/18 A2997 RMK A01 T02020176  RH  085%=      5-min Rain = 0
KWE2 150828Z 18017KT 20/18 A2997 RMK A01 T02020176  RH  085%=      5-min Rain = 0
KWE2 150829Z 18016KT 20/18 A2997 RMK A01 T02020176  RH  085%=      5-min Rain = 0
KWE2 150830Z 18016KT 20/18 A2997 RMK A01 T02020176  RH  085%=      5-min Rain = 0
KWE2 150831Z 18015KT 20/18 A2997 RMK A01 T02020176  RH  085%=      5-min Rain = 0
KWE2 150832Z 18017KT 20/18 A2997 RMK A01 T02020176  RH  085%=      5-min Rain = 0
KWE2 150833Z 19019KT 20/18 A2997 RMK A01 T02020176  RH  085%=      5-min Rain = 0
KWE2 150834Z 18019KT 20/18 A2997 RMK A01 T02020177  RH  085%=      5-min Rain = 0
KWE2 150835Z 19017KT 20/18 A2997 RMK A01 T02020176  RH  085%=      5-min Rain = 0
KWE2 150836Z 19017KT 20/18 A2997 RMK A01 T02030177  RH  085%=      5-min Rain = 0
KWE2 150837Z 19019KT 20/18 A2997 RMK A01 T02030177  RH  085%=      5-min Rain = 0
KWE2 150838Z 19018KT 20/18 A2997 RMK A01 T02020177  RH  085%=      5-min Rain = 0
KWE2 150839Z 19018KT 20/18 A2997 RMK A01 T02020177  RH  085%=      5-min Rain = 0
KWE2 150840Z 19020KT 20/18 A2996 RMK A01 T02020177  RH  085%=      5-min Rain = 0
KWE2 150841Z 19016G21KT 20/18 A2997 RMK A01 T02020177  RH  085%=      5-min Rain = 0
KWE2 150842Z 19017KT 20/18 A2997 RMK A01 T02020177  RH  085%=      5-min Rain = 0
KWE2 150843Z 19018KT 20/18 A2997 RMK A01 T02020177  RH  086%=      5-min Rain = 0
KWE2 150844Z 19018KT 20/18 A2997 RMK A01 T02020177  RH  086%=      5-min Rain = 0
KWE2 150845Z 19018KT 20/18 A2996 RMK A01 T02020177  RH  086%=      5-min Rain = 0
KWE2 150846Z 19018KT 20/18 A2997 RMK A01 T02020177  RH  085%=      5-min Rain = 0
KWE2 150847Z 19019KT 20/18 A2996 RMK A01 T02020177  RH  085%=      5-min Rain = 0
KWE2 150848Z 19019KT 20/18 A2996 RMK A01 T02020177  RH  085%=      5-min Rain = 0
KWE2 150849Z 19018KT 20/18 A2996 RMK A01 T02020177  RH  085%=      5-min Rain = 0
KWE2 150850Z 19016KT 20/18 A2996 RMK A01 T02020177  RH  085%=      5-min Rain = 0
KWE2 150851Z 19016KT 20/18 A2996 RMK A01 T02010176  RH  086%=      5-min Rain = 0
KWE2 150852Z 19019KT 20/18 A2996 RMK A01 T02010177  RH  086%=      5-min Rain = 0
KWE2 150853Z 19020G25KT 20/18 A2996 RMK A01 T02000176  RH  086%=      5-min Rain = 0
KWE2 150854Z 19018KT 20/18 A2996 RMK A01 T02010176  RH  086%=      5-min Rain = 0
KWE2 150855Z 19019G24KT 20/18 A2996 RMK A01 T02010177  RH  086%=      5-min Rain = 0
KWE2 150856Z 19017KT 20/18 A2996 RMK A01 T02010176  RH  086%=      5-min Rain = 0
KWE2 150857Z 19016KT 20/18 A2996 RMK A01 T02010176  RH  086%=      5-min Rain = 0
KWE2 150858Z 19018KT 20/18 A2996 RMK A01 T02010176  RH  086%=      5-min Rain = 0
KWE2 150859Z 20017KT 20/18 A2996 RMK A01 T02010176  RH  086%=      5-min Rain = 0
KWE2 150900Z 19015KT 20/18 A2996 RMK A01 T02000176  RH  086%=      5-min Rain = 0
KWE2 150901Z 19016KT 20/18 A2996 RMK A01 T02000176  RH  086%=      5-min Rain = 0
KWE2 150902Z 19015KT 20/18 A2996 RMK A01 T02000176  RH  086%=      5-min Rain = 0
KWE2 150903Z 19016KT 20/18 A2996 RMK A01 T01990176  RH  086%=      5-min Rain = 0
KWE2 150904Z 19015KT 20/18 A2996 RMK A01 T01990176  RH  086%=      5-min Rain = 0
KWE2 150905Z 19017KT 20/18 A2996 RMK A01 T01990176  RH  086%=      5-min Rain = 0
KWE2 150906Z 19016KT 20/18 A2996 RMK A01 T01990176  RH  086%=      5-min Rain = 0
KWE2 150907Z 19014KT 20/18 A2996 RMK A01 T01990176  RH  086%=      5-min Rain = 0
KWE2 150908Z 19014KT 20/18 A2996 RMK A01 T01990176  RH  086%=      5-min Rain = 0
KWE2 150909Z 19015KT 20/18 A2996 RMK A01 T01980175  RH  087%=      5-min Rain = 0
KWE2 150910Z 19015KT 20/18 A2996 RMK A01 T01980176  RH  087%=      5-min Rain = 0
KWE2 150911Z 19015KT 20/18 A2996 RMK A01 T01980176  RH  087%=      5-min Rain = 0
KWE2 150912Z 19014KT 20/18 A2996 RMK A01 T01980175  RH  087%=      5-min Rain = 0
KWE2 150913Z 19015KT 20/18 A2996 RMK A01 T01980176  RH  087%=      5-min Rain = 0
KWE2 150914Z 19016KT 20/18 A2996 RMK A01 T01980176  RH  087%=      5-min Rain = 0
KWE2 150915Z 19014KT 20/18 A2996 RMK A01 T01980176  RH  087%=      5-min Rain = 0
KWE2 150916Z 19015KT 20/18 A2996 RMK A01 T01980176  RH  087%=      5-min Rain = 0
KWE2 150917Z 19014KT 20/18 A2996 RMK A01 T01970176  RH  087%=      5-min Rain = 0
KWE2 150918Z 19014KT 20/18 A2996 RMK A01 T01970175  RH  087%=      5-min Rain = 0
KWE2 150919Z 19014KT 20/18 A2996 RMK A01 T01970175  RH  087%=      5-min Rain = 0
KWE2 150920Z 19014KT 20/18 A2996 RMK A01 T01970175  RH  087%=      5-min Rain = 0
KWE2 150921Z 19013KT 20/18 A2996 RMK A01 T01970175  RH  087%=      5-min Rain = 0
KWE2 150922Z 19015KT 20/18 A2996 RMK A01 T01960175  RH  088%=      5-min Rain = 0
KWE2 150923Z 19015KT 20/18 A2995 RMK A01 T01960176  RH  088%=      5-min Rain = 0
KWE2 150924Z 19014KT 20/18 A2995 RMK A01 T01960176  RH  088%=      5-min Rain = 0
KWE2 150925Z 19013KT 20/18 A2995 RMK A01 T01960176  RH  088%=      5-min Rain = 0
KWE2 150926Z 19014KT 20/18 A2995 RMK A01 T01960175  RH  088%=      5-min Rain = 0
KWE2 150927Z 19013KT 20/18 A2995 RMK A01 T01960175  RH  088%=      5-min Rain = 0
KWE2 150928Z 19014KT 20/18 A2995 RMK A01 T01960176  RH  088%=      5-min Rain = 0
KWE2 150929Z 20015KT 20/18 A2995 RMK A01 T01960175  RH  088%=      5-min Rain = 0
KWE2 150930Z 19015KT 20/18 A2995 RMK A01 T01960176  RH  088%=      5-min Rain = 0
KWE2 150931Z 20014KT 20/18 A2996 RMK A01 T01960176  RH  088%=      5-min Rain = 0
KWE2 150932Z 19014KT 20/18 A2996 RMK A01 T01960176  RH  088%=      5-min Rain = 0
KWE2 150933Z 20015KT 20/18 A2996 RMK A01 T01960176  RH  088%=      5-min Rain = 0
KWE2 150934Z 19013KT 20/18 A2996 RMK A01 T01960175  RH  088%=      5-min Rain = 0
KWE2 150935Z 20013KT 20/18 A2996 RMK A01 T01960176  RH  088%=      5-min Rain = 0
KWE2 150936Z 19015KT 20/18 A2996 RMK A01 T01960176  RH  088%=      5-min Rain = 0
KWE2 150937Z 20013KT 20/18 A2996 RMK A01 T01960176  RH  088%=      5-min Rain = 0
KWE2 150938Z 20013KT 20/18 A2996 RMK A01 T01960176  RH  088%=      5-min Rain = 0
KWE2 150939Z 20014KT 20/18 A2996 RMK A01 T01960176  RH  088%=      5-min Rain = 0
KWE2 150940Z 20013KT 20/18 A2996 RMK A01 T01960176  RH  088%=      5-min Rain = 0
KWE2 150941Z 20014KT 20/18 A2996 RMK A01 T01960176  RH  088%=      5-min Rain = 0
KWE2 150942Z 20012KT 20/18 A2996 RMK A01 T01960176  RH  088%=      5-min Rain = 0
KWE2 150943Z 20014KT 20/18 A2996 RMK A01 T01950176  RH  088%=      5-min Rain = 0
KWE2 150944Z 20015KT 20/18 A2996 RMK A01 T01960177  RH  089%=      5-min Rain = 0
KWE2 150945Z 20014KT 20/18 A2996 RMK A01 T01960177  RH  089%=      5-min Rain = 0
KWE2 150946Z 20013KT 20/18 A2996 RMK A01 T01950176  RH  089%=      5-min Rain = 0
KWE2 150947Z 20014KT 20/18 A2995 RMK A01 T01950177  RH  089%=      5-min Rain = 0
KWE2 150948Z 20014KT 20/18 A2995 RMK A01 T01950177  RH  089%=      5-min Rain = 0
KWE2 150949Z 20014KT 20/18 A2995 RMK A01 T01950176  RH  089%=      5-min Rain = 0
KWE2 150950Z 20014KT 20/18 A2995 RMK A01 T01950177  RH  089%=      5-min Rain = 0
KWE2 150951Z 20014KT 20/18 A2996 RMK A01 T01950177  RH  089%=      5-min Rain = 0
KWE2 150952Z 20013KT 20/18 A2995 RMK A01 T01950177  RH  089%=      5-min Rain = 0
KWE2 150953Z 20014KT 20/18 A2995 RMK A01 T01950177  RH  089%=      5-min Rain = 0
KWE2 150954Z 20012KT 20/18 A2996 RMK A01 T01950177  RH  089%=      5-min Rain = 0
KWE2 150955Z 20013KT 20/18 A2996 RMK A01 T01950177  RH  089%=      5-min Rain = 0
KWE2 150956Z 20013KT 19/18 A2996 RMK A01 T01940176  RH  089%=      5-min Rain = 0
KWE2 150957Z 20011KT 19/18 A2996 RMK A01 T01940176  RH  089%=      5-min Rain = 0
KWE2 150958Z 20014KT 19/18 A2996 RMK A01 T01940177  RH  090%=      5-min Rain = 0
KWE2 150959Z 20012KT 19/18 A2996 RMK A01 T01940177  RH  090%=      5-min Rain = 0
KWE2 151000Z 20012KT 19/18 A2996 RMK A01 T01940177  RH  090%=      5-min Rain = 0
KWE2 151001Z 20011KT 19/18 A2996 RMK A01 T01940177  RH  090%=      5-min Rain = 0
KWE2 151002Z 20010KT 19/18 A2996 RMK A01 T01940177  RH  090%=      5-min Rain = 0
KWE2 151003Z 20012KT 19/18 A2996 RMK A01 T01940177  RH  090%=      5-min Rain = 0
KWE2 151004Z 20011KT 19/18 A2996 RMK A01 T01940177  RH  090%=      5-min Rain = 0
KWE2 151005Z 20011KT 19/18 A2996 RMK A01 T01930176  RH  090%=      5-min Rain = 0
KWE2 151006Z 20012KT 19/18 A2996 RMK A01 T01930177  RH  090%=      5-min Rain = 0
KWE2 151007Z 20013KT 19/18 A2996 RMK A01 T01930177  RH  090%=      5-min Rain = 0
KWE2 151008Z 20013KT 19/18 A2996 RMK A01 T01940177  RH  090%=      5-min Rain = 0
KWE2 151009Z 20012KT 19/18 A2996 RMK A01 T01940177  RH  090%=      5-min Rain = 0
KWE2 151010Z 20012KT 19/18 A2996 RMK A01 T01940177  RH  090%=      5-min Rain = 0
KWE2 151011Z 20013KT 19/18 A2996 RMK A01 T01940177  RH  090%=      5-min Rain = 0
KWE2 151012Z 20013KT 19/18 A2996 RMK A01 T01940177  RH  090%=      5-min Rain = 0
KWE2 151013Z 20013KT 19/18 A2996 RMK A01 T01940177  RH  090%=      5-min Rain = 0
KWE2 151014Z 20014KT 19/18 A2995 RMK A01 T01940177  RH  090%=      5-min Rain = 0
KWE2 151015Z 21013KT 20/18 A2995 RMK A01 T01950177  RH  090%=      5-min Rain = 0
KWE2 151016Z 20012KT 20/18 A2995 RMK A01 T01950177  RH  089%=      5-min Rain = 0
KWE2 151017Z 20012KT 20/18 A2995 RMK A01 T01950177  RH  089%=      5-min Rain = 0
KWE2 151018Z 20011KT 20/18 A2995 RMK A01 T01950177  RH  089%=      5-min Rain = 0
KWE2 151019Z 20012KT 19/18 A2995 RMK A01 T01940177  RH  090%=      5-min Rain = 0
KWE2 151020Z 20013KT 19/18 A2995 RMK A01 T01940177  RH  090%=      5-min Rain = 0
KWE2 151021Z 20014KT 19/18 A2995 RMK A01 T01940177  RH  090%=      5-min Rain = 0
KWE2 151022Z 20013KT 19/18 A2995 RMK A01 T01940177  RH  090%=      5-min Rain = 0
KWE2 151023Z 21013KT 19/18 A2996 RMK A01 T01940177  RH  090%=      5-min Rain = 0
KWE2 151024Z 20013KT 20/18 A2996 RMK A01 T01950177  RH  090%=      5-min Rain = 0
KWE2 151025Z 20013KT 20/18 A2996 RMK A01 T01950177  RH  090%=      5-min Rain = 0
KWE2 151026Z 21011KT 20/18 A2996 RMK A01 T01950177  RH  090%=      5-min Rain = 0
KWE2 151027Z 20012KT 19/18 A2996 RMK A01 T01940177  RH  090%=      5-min Rain = 0
KWE2 151028Z 21012KT 19/18 A2996 RMK A01 T01940177  RH  090%=      5-min Rain = 0
KWE2 151029Z 21012KT 19/18 A2996 RMK A01 T01940177  RH  090%=      5-min Rain = 0
KWE2 151030Z 20012KT 19/18 A2996 RMK A01 T01940177  RH  090%=      5-min Rain = 0
KWE2 151031Z 20012KT 19/18 A2996 RMK A01 T01940177  RH  090%=      5-min Rain = 0
KWE2 151032Z 20013KT 19/18 A2996 RMK A01 T01930177  RH  090%=      5-min Rain = 0
KWE2 151033Z 21011KT 19/18 A2996 RMK A01 T01930177  RH  090%=      5-min Rain = 0
KWE2 151034Z 20012KT 19/18 A2996 RMK A01 T01930177  RH  090%=      5-min Rain = 0
KWE2 151035Z 21012KT 19/18 A2996 RMK A01 T01930177  RH  090%=      5-min Rain = 0
KWE2 151036Z 20012KT 19/18 A2996 RMK A01 T01930177  RH  090%=      5-min Rain = 0
KWE2 151037Z 21011KT 19/18 A2996 RMK A01 T01930177  RH  090%=      5-min Rain = 0
KWE2 151038Z 21012KT 19/18 A2996 RMK A01 T01930177  RH  090%=      5-min Rain = 0
KWE2 151039Z 20012KT 19/18 A2996 RMK A01 T01930177  RH  090%=      5-min Rain = 0
KWE2 151040Z 20012KT 19/18 A2996 RMK A01 T01930177  RH  090%=      5-min Rain = 0
KWE2 151041Z 20011KT 19/18 A2996 RMK A01 T01930177  RH  090%=      5-min Rain = 0
KWE2 151042Z 20011KT 19/18 A2996 RMK A01 T01920176  RH  090%=      5-min Rain = 0
KWE2 151043Z 20012KT 19/18 A2996 RMK A01 T01920177  RH  091%=      5-min Rain = 0
KWE2 151044Z 20011KT 19/18 A2996 RMK A01 T01920177  RH  091%=      5-min Rain = 0
KWE2 151045Z 20011KT 19/18 A2996 RMK A01 T01920176  RH  090%=      5-min Rain = 0
KWE2 151046Z 20011KT 19/18 A2996 RMK A01 T01920176  RH  091%=      5-min Rain = 0
KWE2 151047Z 20010KT 19/18 A2996 RMK A01 T01920176  RH  091%=      5-min Rain = 0
KWE2 151048Z 21011KT 19/18 A2996 RMK A01 T01910176  RH  091%=      5-min Rain = 0
KWE2 151049Z 20011KT 19/18 A2996 RMK A01 T01910176  RH  091%=      5-min Rain = 0
KWE2 151050Z 20009KT 19/18 A2996 RMK A01 T01910177  RH  091%=      5-min Rain = 0
KWE2 151051Z 20011KT 19/18 A2996 RMK A01 T01910176  RH  091%=      5-min Rain = 0
KWE2 151052Z 20011KT 19/18 A2996 RMK A01 T01900176  RH  091%=      5-min Rain = 0
KWE2 151053Z 20009KT 19/18 A2996 RMK A01 T01900176  RH  091%=      5-min Rain = 0
KWE2 151054Z 20009KT 19/18 A2996 RMK A01 T01900176  RH  091%=      5-min Rain = 0
KWE2 151055Z 20009KT 19/18 A2996 RMK A01 T01900176  RH  091%=      5-min Rain = 0
KWE2 151056Z 20009KT 19/18 A2996 RMK A01 T01900176  RH  091%=      5-min Rain = 0
KWE2 151057Z 20011KT 19/18 A2996 RMK A01 T01900176  RH  091%=      5-min Rain = 0
KWE2 151058Z 20010KT 19/18 A2996 RMK A01 T01900176  RH  092%=      5-min Rain = 0
KWE2 151059Z 21010KT 19/18 A2996 RMK A01 T01900176  RH  092%=      5-min Rain = 0
KWE2 151100Z 20010KT 19/18 A2996 RMK A01 T01900175  RH  091%=      5-min Rain = 0
KWE2 151101Z 20010KT 19/18 A2996 RMK A01 T01900175  RH  091%=      5-min Rain = 0
KWE2 151102Z 20011KT 19/18 A2996 RMK A01 T01900176  RH  092%=      5-min Rain = 0
KWE2 151103Z 20010KT 19/18 A2996 RMK A01 T01900176  RH  092%=      5-min Rain = 0
KWE2 151104Z 20010KT 19/18 A2996 RMK A01 T01900175  RH  091%=      5-min Rain = 0
KWE2 151105Z 20011KT 19/18 A2996 RMK A01 T01900176  RH  092%=      5-min Rain = 0
KWE2 151106Z 20010KT 19/18 A2996 RMK A01 T01900176  RH  092%=      5-min Rain = 0
KWE2 151107Z 20010KT 19/18 A2996 RMK A01 T01900176  RH  092%=      5-min Rain = 0
KWE2 151108Z 21011KT 19/18 A2996 RMK A01 T01900176  RH  092%=      5-min Rain = 0
KWE2 151109Z 20010KT 19/18 A2996 RMK A01 T01900176  RH  092%=      5-min Rain = 0
KWE2 151110Z 20010KT 19/18 A2996 RMK A01 T01900176  RH  092%=      5-min Rain = 0
KWE2 151111Z 21009KT 19/18 A2996 RMK A01 T01900176  RH  092%=      5-min Rain = 0
KWE2 151112Z 21009KT 19/18 A2996 RMK A01 T01890176  RH  092%=      5-min Rain = 0
KWE2 151113Z 20010KT 19/18 A2996 RMK A01 T01900176  RH  092%=      5-min Rain = 0
KWE2 151114Z 20009KT 19/18 A2996 RMK A01 T01900176  RH  092%=      5-min Rain = 0
KWE2 151115Z 20010KT 19/18 A2996 RMK A01 T01900176  RH  092%=      5-min Rain = 0
KWE2 151116Z 20010KT 19/18 A2996 RMK A01 T01890176  RH  092%=      5-min Rain = 0
KWE2 151117Z 20009KT 19/18 A2996 RMK A01 T01890176  RH  092%=      5-min Rain = 0
KWE2 151118Z 20010KT 19/18 A2996 RMK A01 T01890176  RH  092%=      5-min Rain = 0
KWE2 151119Z 20009KT 19/18 A2996 RMK A01 T01890176  RH  092%=      5-min Rain = 0
KWE2 151120Z 21010KT 19/18 A2996 RMK A01 T01890176  RH  092%=      5-min Rain = 0
KWE2 151121Z 20010KT 19/18 A2996 RMK A01 T01890175  RH  092%=      5-min Rain = 0
KWE2 151122Z 20009KT 19/18 A2996 RMK A01 T01890176  RH  092%=      5-min Rain = 0
KWE2 151123Z 20010KT 19/18 A2996 RMK A01 T01890176  RH  092%=      5-min Rain = 0
KWE2 151124Z 20009KT 19/18 A2996 RMK A01 T01890176  RH  092%=      5-min Rain = 0
KWE2 151125Z 20009KT 19/18 A2996 RMK A01 T01880175  RH  092%=      5-min Rain = 0
KWE2 151126Z 20009KT 19/18 A2996 RMK A01 T01880175  RH  092%=      5-min Rain = 0
KWE2 151127Z 20009KT 19/18 A2996 RMK A01 T01880175  RH  092%=      5-min Rain = 0
KWE2 151128Z 20007KT 19/18 A2996 RMK A01 T01880175  RH  092%=      5-min Rain = 0
KWE2 151129Z 21008KT 19/18 A2996 RMK A01 T01880175  RH  092%=      5-min Rain = 0
KWE2 151130Z 20009KT 19/18 A2996 RMK A01 T01880175  RH  092%=      5-min Rain = 0
KWE2 151131Z 20009KT 19/18 A2996 RMK A01 T01870175  RH  093%=      5-min Rain = 0
KWE2 151132Z 21007KT 19/18 A2996 RMK A01 T01870175  RH  092%=      5-min Rain = 0
KWE2 151133Z 21008KT 19/18 A2996 RMK A01 T01870175  RH  093%=      5-min Rain = 0
KWE2 151134Z 20008KT 19/18 A2996 RMK A01 T01870175  RH  093%=      5-min Rain = 0
KWE2 151135Z 20009KT 19/18 A2996 RMK A01 T01870175  RH  093%=      5-min Rain = 0
KWE2 151136Z 20008KT 19/18 A2996 RMK A01 T01870175  RH  093%=      5-min Rain = 0
KWE2 151137Z 21008KT 19/17 A2996 RMK A01 T01870174  RH  092%=      5-min Rain = 0
KWE2 151138Z 21008KT 19/18 A2996 RMK A01 T01870175  RH  093%=      5-min Rain = 0
KWE2 151139Z 21007KT 19/17 A2996 RMK A01 T01860174  RH  093%=      5-min Rain = 0
KWE2 151140Z 21007KT 19/17 A2996 RMK A01 T01860174  RH  093%=      5-min Rain = 0
KWE2 151141Z 21007KT 19/17 A2996 RMK A01 T01860174  RH  093%=      5-min Rain = 0
KWE2 151142Z 21008KT 19/17 A2996 RMK A01 T01850174  RH  093%=      5-min Rain = 0
KWE2 151143Z 21007KT 19/17 A2996 RMK A01 T01860174  RH  093%=      5-min Rain = 0
KWE2 151144Z 21007KT 19/17 A2996 RMK A01 T01860174  RH  093%=      5-min Rain = 0
KWE2 151145Z 21007KT 19/18 A2996 RMK A01 T01860175  RH  093%=      5-min Rain = 0
KWE2 151146Z 21007KT 19/17 A2996 RMK A01 T01850174  RH  093%=      5-min Rain = 0
KWE2 151147Z 21007KT 19/17 A2996 RMK A01 T01850174  RH  093%=      5-min Rain = 0
KWE2 151148Z 21007KT 19/17 A2996 RMK A01 T01850174  RH  093%=      5-min Rain = 0
KWE2 151149Z 21007KT 19/17 A2996 RMK A01 T01850174  RH  093%=      5-min Rain = 0
KWE2 151150Z 21008KT 19/17 A2996 RMK A01 T01850174  RH  093%=      5-min Rain = 0
KWE2 151151Z 21007KT 19/17 A2996 RMK A01 T01850174  RH  094%=      5-min Rain = 0
KWE2 151152Z 21008KT 19/17 A2996 RMK A01 T01850174  RH  093%=      5-min Rain = 0
KWE2 151153Z 22008KT 19/17 A2996 RMK A01 T01850174  RH  093%=      5-min Rain = 0
KWE2 151154Z 21008KT 18/17 A2996 RMK A01 T01840174  RH  094%=      5-min Rain = 0
KWE2 151155Z 21008KT 19/17 A2996 RMK A01 T01850174  RH  094%=      5-min Rain = 0
KWE2 151156Z 21008KT 19/17 A2996 RMK A01 T01850174  RH  094%=      5-min Rain = 0
KWE2 151157Z 21008KT 18/17 A2996 RMK A01 T01840174  RH  094%=      5-min Rain = 0
KWE2 151158Z 21007KT 19/17 A2997 RMK A01 T01850174  RH  094%=      5-min Rain = 0
KWE2 151159Z 22008KT 18/17 A2997 RMK A01 T01840174  RH  093%=      5-min Rain = 0
KWE2 151200Z 22008KT 19/17 A2997 RMK A01 T01850174  RH  094%=      5-min Rain = 0
KWE2 151201Z 22008KT 19/17 A2997 RMK A01 T01850174  RH  093%=      5-min Rain = 0
KWE2 151202Z 22007KT 19/17 A2997 RMK A01 T01850174  RH  094%=      5-min Rain = 0
KWE2 151203Z 22007KT 18/17 A2997 RMK A01 T01840174  RH  094%=      5-min Rain = 0
KWE2 151204Z 22008KT 18/17 A2997 RMK A01 T01840174  RH  094%=      5-min Rain = 0
KWE2 151205Z 21008KT 18/17 A2997 RMK A01 T01840174  RH  094%=      5-min Rain = 0
KWE2 151206Z 22008KT 18/17 A2997 RMK A01 T01840174  RH  094%=      5-min Rain = 0
KWE2 151207Z 21007KT 18/17 A2997 RMK A01 T01840174  RH  094%=      5-min Rain = 0
KWE2 151208Z 22007KT 18/17 A2997 RMK A01 T01840174  RH  094%=      5-min Rain = 0
KWE2 151209Z 22007KT 18/17 A2997 RMK A01 T01840174  RH  094%=      5-min Rain = 0
KWE2 151210Z 22007KT 18/17 A2997 RMK A01 T01840174  RH  094%=      5-min Rain = 0
KWE2 151211Z 21007KT 18/17 A2997 RMK A01 T01840174  RH  094%=      5-min Rain = 0
KWE2 151212Z 22007KT 18/17 A2997 RMK A01 T01840174  RH  094%=      5-min Rain = 0
KWE2 151213Z 22007KT 18/17 A2997 RMK A01 T01840174  RH  094%=      5-min Rain = 0
KWE2 151214Z 22007KT 18/17 A2997 RMK A01 T01840174  RH  094%=      5-min Rain = 0
KWE2 151215Z 22007KT 18/17 A2997 RMK A01 T01840174  RH  094%=      5-min Rain = 0
KWE2 151216Z 22006KT 18/17 A2997 RMK A01 T01840174  RH  094%=      5-min Rain = 0
KWE2 151217Z 21006KT 18/17 A2998 RMK A01 T01840174  RH  094%=      5-min Rain = 0
KWE2 151218Z 22006KT 18/17 A2998 RMK A01 T01840174  RH  094%=      5-min Rain = 0
KWE2 151219Z 21006KT 18/17 A2998 RMK A01 T01840174  RH  094%=      5-min Rain = 0
KWE2 151220Z 22006KT 18/17 A2998 RMK A01 T01840174  RH  094%=      5-min Rain = 0
KWE2 151221Z 22006KT 18/17 A2998 RMK A01 T01840174  RH  094%=      5-min Rain = 0
KWE2 151222Z 22005KT 18/17 A2998 RMK A01 T01840174  RH  094%=      5-min Rain = 0
KWE2 151223Z 22006KT 18/17 A2998 RMK A01 T01840174  RH  094%=      5-min Rain = 0
KWE2 151224Z 22005KT 18/17 A2998 RMK A01 T01840174  RH  094%=      5-min Rain = 0
KWE2 151225Z 22005KT 18/17 A2998 RMK A01 T01840174  RH  094%=      5-min Rain = 0
KWE2 151226Z 22005KT 19/17 A2998 RMK A01 T01850174  RH  094%=      5-min Rain = 0
KWE2 151227Z 22005KT 19/17 A2998 RMK A01 T01850174  RH  094%=      5-min Rain = 0
KWE2 151228Z 22005KT 19/17 A2998 RMK A01 T01850174  RH  094%=      5-min Rain = 0
KWE2 151229Z 23005KT 19/17 A2998 RMK A01 T01850174  RH  094%=      5-min Rain = 0
KWE2 151230Z 23004KT 19/17 A2998 RMK A01 T01850174  RH  094%=      5-min Rain = 0
KWE2 151231Z 23004KT 19/17 A2998 RMK A01 T01850174  RH  094%=      5-min Rain = 0
KWE2 151232Z 23004KT 19/18 A2999 RMK A01 T01850175  RH  094%=      5-min Rain = 0
KWE2 151233Z 23004KT 19/18 A2999 RMK A01 T01850175  RH  094%=      5-min Rain = 0
KWE2 151234Z 23004KT 19/18 A2999 RMK A01 T01850175  RH  094%=      5-min Rain = 0
KWE2 151235Z 23005KT 19/18 A2999 RMK A01 T01860175  RH  094%=      5-min Rain = 0
KWE2 151236Z 23004KT 19/18 A2999 RMK A01 T01860175  RH  093%=      5-min Rain = 0
KWE2 151237Z 23005KT 19/18 A2999 RMK A01 T01870176  RH  093%=      5-min Rain = 0
KWE2 151238Z 23005KT 19/18 A2999 RMK A01 T01870176  RH  093%=      5-min Rain = 0
KWE2 151239Z 23004KT 19/18 A2998 RMK A01 T01870175  RH  093%=      5-min Rain = 0
KWE2 151240Z 24004KT 19/18 A2998 RMK A01 T01870176  RH  093%=      5-min Rain = 0
KWE2 151241Z 24005KT 19/18 A2999 RMK A01 T01880176  RH  093%=      5-min Rain = 0
KWE2 151242Z 25005KT 19/18 A2999 RMK A01 T01880176  RH  093%=      5-min Rain = 0
KWE2 151243Z 26005KT 19/18 A2999 RMK A01 T01880176  RH  093%=      5-min Rain = 0
KWE2 151244Z 26005KT 19/18 A2999 RMK A01 T01880176  RH  093%=      5-min Rain = 0
KWE2 151245Z 26005KT 19/18 A2999 RMK A01 T01890177  RH  093%=      5-min Rain = 0
KWE2 151246Z 26005KT 19/18 A2999 RMK A01 T01890177  RH  093%=      5-min Rain = 0
KWE2 151247Z 26004KT 19/18 A2999 RMK A01 T01890177  RH  093%=      5-min Rain = 0
KWE2 151248Z 26005KT 19/18 A2999 RMK A01 T01900177  RH  093%=      5-min Rain = 0
KWE2 151249Z 27004KT 19/18 A2999 RMK A01 T01900177  RH  092%=      5-min Rain = 0
KWE2 151250Z 27004KT 19/18 A2999 RMK A01 T01900178  RH  092%=      5-min Rain = 0
KWE2 151251Z 27005KT 19/18 A2999 RMK A01 T01910178  RH  092%=      5-min Rain = 0
KWE2 151252Z 27003KT 19/18 A2999 RMK A01 T01910178  RH  092%=      5-min Rain = 0
KWE2 151253Z 27004KT 19/18 A2999 RMK A01 T01910178  RH  092%=      5-min Rain = 0
KWE2 151254Z 27005KT 19/18 A2999 RMK A01 T01920178  RH  092%=      5-min Rain = 0
KWE2 151255Z 28005KT 19/18 A2999 RMK A01 T01920179  RH  092%=      5-min Rain = 0
KWE2 151256Z 28005KT 19/18 A2999 RMK A01 T01930179  RH  092%=      5-min Rain = 0
KWE2 151257Z 28005KT 19/18 A2999 RMK A01 T01930179  RH  091%=      5-min Rain = 0
KWE2 151258Z 28004KT 19/18 A2999 RMK A01 T01930179  RH  091%=      5-min Rain = 0
KWE2 151259Z 28005KT 19/18 A2999 RMK A01 T01940179  RH  091%=      5-min Rain = 0
KWE2 151300Z 27005KT 19/18 A2999 RMK A01 T01940180  RH  091%=      5-min Rain = 0
KWE2 151301Z 26005KT 20/18 A2999 RMK A01 T01950180  RH  091%=      5-min Rain = 0
KWE2 151302Z 26004KT 20/18 A2999 RMK A01 T01960181  RH  091%=      5-min Rain = 0
KWE2 151303Z 27005KT 20/18 A2999 RMK A01 T01970181  RH  091%=      5-min Rain = 0
KWE2 151304Z 27005KT 20/18 A2999 RMK A01 T01970182  RH  091%=      5-min Rain = 0
KWE2 151305Z 26006KT 20/18 A2999 RMK A01 T01970181  RH  091%=      5-min Rain = 0
KWE2 151306Z 26007KT 20/18 A2999 RMK A01 T01970181  RH  091%=      5-min Rain = 0
KWE2 151307Z 25006KT 20/18 A2999 RMK A01 T01970181  RH  091%=      5-min Rain = 0
KWE2 151308Z 27005KT 20/18 A2999 RMK A01 T01970182  RH  091%=      5-min Rain = 0
KWE2 151309Z 26006KT 20/18 A2999 RMK A01 T01980182  RH  091%=      5-min Rain = 0
KWE2 151310Z 26007KT 20/18 A2999 RMK A01 T01990183  RH  090%=      5-min Rain = 0
KWE2 151311Z 26006KT 20/18 A2999 RMK A01 T02000183  RH  090%=      5-min Rain = 0
KWE2 151312Z 25006KT 20/18 A2999 RMK A01 T02000184  RH  090%=      5-min Rain = 0
KWE2 151313Z 26006KT 20/18 A2999 RMK A01 T02010184  RH  090%=      5-min Rain = 0
KWE2 151314Z 26006KT 20/18 A2999 RMK A01 T02010184  RH  089%=      5-min Rain = 0
KWE2 151315Z 26007KT 20/18 A2999 RMK A01 T02020184  RH  090%=      5-min Rain = 0
KWE2 151316Z 25007KT 20/19 A2999 RMK A01 T02030185  RH  089%=      5-min Rain = 0
KWE2 151317Z 25007KT 20/19 A2999 RMK A01 T02030185  RH  089%=      5-min Rain = 0
KWE2 151318Z 25008KT 20/19 A2999 RMK A01 T02040185  RH  089%=      5-min Rain = 0
KWE2 151319Z 25007KT 20/19 A2999 RMK A01 T02040185  RH  089%=      5-min Rain = 0
KWE2 151320Z 25008KT 20/19 A2999 RMK A01 T02040185  RH  089%=      5-min Rain = 0
KWE2 151321Z 25009KT 21/19 A2999 RMK A01 T02050186  RH  089%=      5-min Rain = 0
KWE2 151322Z 25009KT 21/19 A2999 RMK A01 T02050186  RH  089%=      5-min Rain = 0
KWE2 151323Z 25008KT 21/19 A2999 RMK A01 T02050186  RH  088%=      5-min Rain = 0
KWE2 151324Z 25009KT 21/19 A2999 RMK A01 T02060186  RH  088%=      5-min Rain = 0
KWE2 151325Z 24008KT 21/19 A2999 RMK A01 T02060186  RH  088%=      5-min Rain = 0
KWE2 151326Z 24007KT 21/19 A2999 RMK A01 T02070186  RH  088%=      5-min Rain = 0
KWE2 151327Z 25009KT 21/19 A2999 RMK A01 T02070186  RH  088%=      5-min Rain = 0
KWE2 151328Z 25009KT 21/19 A2999 RMK A01 T02080187  RH  088%=      5-min Rain = 0
KWE2 151329Z 25010KT 21/19 A2999 RMK A01 T02090187  RH  087%=      5-min Rain = 0
KWE2 151330Z 25008KT 21/19 A2999 RMK A01 T02090187  RH  087%=      5-min Rain = 0
KWE2 151331Z 25009KT 21/19 A2999 RMK A01 T02100187  RH  087%=      5-min Rain = 0
KWE2 151332Z 25009KT 21/19 A2999 RMK A01 T02120188  RH  086%=      5-min Rain = 0
KWE2 151333Z 25009KT 21/19 A2999 RMK A01 T02120187  RH  086%=      5-min Rain = 0
KWE2 151334Z 25010KT 21/19 A2999 RMK A01 T02130187  RH  085%=      5-min Rain = 0
KWE2 151335Z 25011KT 21/19 A2999 RMK A01 T02140187  RH  085%=      5-min Rain = 0
KWE2 151336Z 25010KT 21/19 A2999 RMK A01 T02140187  RH  085%=      5-min Rain = 0
KWE2 151337Z 24010KT 21/19 A2999 RMK A01 T02140188  RH  085%=      5-min Rain = 0
KWE2 151338Z 24009KT 21/19 A2999 RMK A01 T02140187  RH  084%=      5-min Rain = 0
KWE2 151339Z 24011KT 22/19 A2999 RMK A01 T02150187  RH  084%=      5-min Rain = 0
KWE2 151340Z 24011KT 22/19 A2999 RMK A01 T02160188  RH  084%=      5-min Rain = 0
KWE2 151341Z 24011KT 22/19 A2999 RMK A01 T02160188  RH  084%=      5-min Rain = 0
KWE2 151342Z 24008KT 22/19 A2999 RMK A01 T02170188  RH  084%=      5-min Rain = 0
KWE2 151343Z 25010KT 22/19 A2999 RMK A01 T02180188  RH  083%=      5-min Rain = 0
KWE2 151344Z 25012KT 22/19 A2999 RMK A01 T02190188  RH  082%=      5-min Rain = 0
KWE2 151345Z 24011KT 22/19 A2999 RMK A01 T02190187  RH  082%=      5-min Rain = 0
KWE2 151346Z 24012KT 22/19 A2999 RMK A01 T02190187  RH  082%=      5-min Rain = 0
KWE2 151347Z 24012KT 22/19 A2999 RMK A01 T02190187  RH  082%=      5-min Rain = 0
KWE2 151348Z 24013KT 22/19 A2999 RMK A01 T02190188  RH  082%=      5-min Rain = 0
KWE2 151349Z 24011KT 22/19 A2999 RMK A01 T02200187  RH  082%=      5-min Rain = 0
KWE2 151350Z 25012KT 22/19 A2999 RMK A01 T02210188  RH  081%=      5-min Rain = 0
KWE2 151351Z 25013KT 22/19 A2999 RMK A01 T02210188  RH  081%=      5-min Rain = 0
KWE2 151352Z 24012KT 22/19 A2999 RMK A01 T02210188  RH  081%=      5-min Rain = 0
KWE2 151353Z 24013KT 22/19 A2999 RMK A01 T02220187  RH  081%=      5-min Rain = 0
KWE2 151354Z 24012KT 22/19 A2999 RMK A01 T02220187  RH  081%=      5-min Rain = 0
KWE2 151355Z 24013KT 22/19 A2999 RMK A01 T02230188  RH  080%=      5-min Rain = 0
KWE2 151356Z 25011KT 23/19 A2999 RMK A01 T02250189  RH  080%=      5-min Rain = 0
KWE2 151357Z 24011KT 23/19 A2999 RMK A01 T02270189  RH  079%=      5-min Rain = 0
KWE2 151358Z 24012KT 23/19 A2999 RMK A01 T02280189  RH  079%=      5-min Rain = 0
KWE2 151359Z 25012KT 23/19 A2999 RMK A01 T02270189  RH  079%=      5-min Rain = 0
KWE2 151400Z 25012KT 23/19 A2999 RMK A01 T02270188  RH  078%=      5-min Rain = 0
KWE2 151401Z 25014KT 23/19 A2999 RMK A01 T02290187  RH  077%=      5-min Rain = 0
KWE2 151402Z 24012KT 23/19 A2999 RMK A01 T02290187  RH  077%=      5-min Rain = 0
KWE2 151403Z 24012KT 23/19 A2999 RMK A01 T02290188  RH  078%=      5-min Rain = 0
KWE2 151404Z 23012KT 23/19 A2999 RMK A01 T02290187  RH  077%=      5-min Rain = 0
KWE2 151405Z 24011KT 23/19 A2999 RMK A01 T02300187  RH  077%=      5-min Rain = 0
KWE2 151406Z 25014KT 23/19 A2999 RMK A01 T02320186  RH  076%=      5-min Rain = 0
KWE2 151407Z 25013KT 23/19 A2999 RMK A01 T02320187  RH  076%=      5-min Rain = 0
KWE2 151408Z 24011KT 23/19 A2999 RMK A01 T02320186  RH  075%=      5-min Rain = 0
KWE2 151409Z 25013KT 23/19 A2999 RMK A01 T02340187  RH  075%=      5-min Rain = 0
KWE2 151410Z 25013KT 24/19 A2999 RMK A01 T02350186  RH  074%=      5-min Rain = 0
KWE2 151411Z 25013KT 24/19 A2999 RMK A01 T02360186  RH  074%=      5-min Rain = 0
KWE2 151412Z 24011KT 24/19 A2999 RMK A01 T02370186  RH  073%=      5-min Rain = 0
KWE2 151413Z 24010KT 24/19 A2999 RMK A01 T02380187  RH  073%=      5-min Rain = 0
KWE2 151414Z 24013KT 24/19 A2999 RMK A01 T02390186  RH  072%=      5-min Rain = 0
KWE2 151415Z 24012KT 24/19 A2999 RMK A01 T02380185  RH  072%=      5-min Rain = 0
KWE2 151416Z 24013KT 24/18 A2999 RMK A01 T02380184  RH  072%=      5-min Rain = 0
KWE2 151417Z 24012KT 24/19 A2999 RMK A01 T02380185  RH  072%=      5-min Rain = 0
KWE2 151418Z 24015KT 24/18 A2999 RMK A01 T02380183  RH  071%=      5-min Rain = 0
KWE2 151419Z 24014KT 24/18 A2999 RMK A01 T02370183  RH  072%=      5-min Rain = 0
KWE2 151420Z 23014KT 24/18 A2999 RMK A01 T02370182  RH  071%=      5-min Rain = 0
KWE2 151421Z 24014KT 24/18 A2999 RMK A01 T02370181  RH  071%=      5-min Rain = 0
KWE2 151422Z 25013KT 24/18 A2999 RMK A01 T02380182  RH  071%=      5-min Rain = 0
KWE2 151423Z 25015KT 24/18 A2999 RMK A01 T02400182  RH  070%=      5-min Rain = 0
KWE2 151424Z 24014KT 24/18 A2999 RMK A01 T02400181  RH  070%=      5-min Rain = 0
KWE2 151425Z 25015KT 24/18 A2999 RMK A01 T02390180  RH  069%=      5-min Rain = 0
KWE2 151426Z 25014KT 24/18 A2999 RMK A01 T02400180  RH  069%=      5-min Rain = 0
KWE2 151427Z 25015KT 24/18 A2999 RMK A01 T02410181  RH  069%=      5-min Rain = 0
KWE2 151428Z 24014KT 24/18 A2999 RMK A01 T02400181  RH  070%=      5-min Rain = 0
KWE2 151429Z 25014KT 24/18 A2999 RMK A01 T02400179  RH  069%=      5-min Rain = 0
KWE2 151430Z 25014KT 24/18 A2999 RMK A01 T02410179  RH  068%=      5-min Rain = 0
KWE2 151431Z 24013KT 24/18 A2999 RMK A01 T02420180  RH  068%=      5-min Rain = 0
KWE2 151432Z 24014KT 24/18 A2999 RMK A01 T02420181  RH  068%=      5-min Rain = 0
KWE2 151433Z 24013KT 24/18 A2999 RMK A01 T02430180  RH  068%=      5-min Rain = 0
KWE2 151434Z 24014KT 24/18 A2999 RMK A01 T02430181  RH  068%=      5-min Rain = 0
KWE2 151435Z 24011KT 24/18 A2999 RMK A01 T02440182  RH  068%=      5-min Rain = 0
KWE2 151436Z 25013KT 25/18 A2999 RMK A01 T02470183  RH  067%=      5-min Rain = 0
KWE2 151437Z 25014KT 25/18 A2999 RMK A01 T02490182  RH  066%=      5-min Rain = 0
KWE2 151438Z 25014KT 25/18 A2999 RMK A01 T02480182  RH  067%=      5-min Rain = 0
KWE2 151439Z 25013KT 25/18 A2999 RMK A01 T02470181  RH  067%=      5-min Rain = 0
KWE2 151440Z 24012KT 25/18 A2999 RMK A01 T02460182  RH  068%=      5-min Rain = 0
KWE2 151441Z 24011KT 25/18 A2999 RMK A01 T02470183  RH  067%=      5-min Rain = 0
KWE2 151442Z 24012KT 25/18 A2999 RMK A01 T02490181  RH  066%=      5-min Rain = 0
KWE2 151443Z 25013KT 25/18 A2999 RMK A01 T02500182  RH  066%=      5-min Rain = 0
KWE2 151444Z 25013KT 25/18 A2999 RMK A01 T02500180  RH  065%=      5-min Rain = 0
KWE2 151445Z 25015KT 25/18 A2999 RMK A01 T02510180  RH  065%=      5-min Rain = 0
KWE2 151446Z 26014KT 25/18 A2999 RMK A01 T02510181  RH  065%=      5-min Rain = 0
KWE2 151447Z 26013KT 25/18 A2999 RMK A01 T02510180  RH  065%=      5-min Rain = 0
KWE2 151448Z 26015KT 25/18 A2999 RMK A01 T02510180  RH  065%=      5-min Rain = 0
KWE2 151449Z 25012KT 25/18 A2999 RMK A01 T02530180  RH  064%=      5-min Rain = 0
KWE2 151450Z 24011KT 25/18 A2999 RMK A01 T02530182  RH  065%=      5-min Rain = 0
KWE2 151451Z 25013KT 26/18 A2999 RMK A01 T02550180  RH  064%=      5-min Rain = 0
KWE2 151452Z 25012KT 26/18 A2999 RMK A01 T02550178  RH  062%=      5-min Rain = 0
KWE2 151453Z 25011KT 25/18 A2999 RMK A01 T02540180  RH  064%=      5-min Rain = 0
KWE2 151454Z 25012KT 26/18 A2999 RMK A01 T02550180  RH  063%=      5-min Rain = 0
KWE2 151455Z 26014KT 26/18 A2999 RMK A01 T02570179  RH  062%=      5-min Rain = 0
KWE2 151456Z 26011KT 26/18 A2999 RMK A01 T02590179  RH  061%=      5-min Rain = 0
KWE2 151457Z 25011KT 26/18 A2999 RMK A01 T02610179  RH  061%=      5-min Rain = 0
KWE2 151458Z 24012KT 26/18 A2999 RMK A01 T02610180  RH  061%=      5-min Rain = 0
KWE2 151459Z 24012KT 26/18 A2999 RMK A01 T02620179  RH  060%=      5-min Rain = 0
KWE2 151500Z 25012KT 26/18 A2999 RMK A01 T02640177  RH  059%=      5-min Rain = 0
KWE2 151501Z 25011KT 27/18 A2999 RMK A01 T02650179  RH  059%=      5-min Rain = 0
KWE2 151502Z 25012KT 27/18 A2999 RMK A01 T02670179  RH  058%=      5-min Rain = 0
KWE2 151503Z 25012KT 27/18 A2999 RMK A01 T02650179  RH  059%=      5-min Rain = 0
KWE2 151504Z 25010KT 26/18 A2999 RMK A01 T02620177  RH  060%=      5-min Rain = 0
KWE2 151505Z 24011KT 26/18 A2999 RMK A01 T02610179  RH  060%=      5-min Rain = 0
KWE2 151506Z 25012KT 26/18 A2999 RMK A01 T02620177  RH  059%=      5-min Rain = 0
KWE2 151507Z 25011KT 26/18 A2999 RMK A01 T02630178  RH  059%=      5-min Rain = 0
KWE2 151508Z 26009KT 26/18 A2999 RMK A01 T02640178  RH  059%=      5-min Rain = 0
KWE2 151509Z 25011KT 26/18 A2999 RMK A01 T02640181  RH  060%=      5-min Rain = 0
KWE2 151510Z 24011KT 27/18 A2999 RMK A01 T02660178  RH  058%=      5-min Rain = 0
KWE2 151511Z 26011KT 27/18 A2999 RMK A01 T02660178  RH  058%=      5-min Rain = 0
KWE2 151512Z 24011KT 27/18 A2999 RMK A01 T02670177  RH  058%=      5-min Rain = 0
KWE2 151513Z 25011KT 27/18 A2999 RMK A01 T02670177  RH  058%=      5-min Rain = 0
KWE2 151514Z 23010KT 27/18 A2999 RMK A01 T02660175  RH  058%=      5-min Rain = 0
KWE2 151515Z 23010KT 27/18 A2999 RMK A01 T02650175  RH  058%=      5-min Rain = 0
KWE2 151516Z 23009KT 27/17 A2999 RMK A01 T02650173  RH  057%=      5-min Rain = 0
KWE2 151517Z 24010KT 27/17 A2999 RMK A01 T02670174  RH  057%=      5-min Rain = 0
KWE2 151518Z 24011KT 27/17 A2999 RMK A01 T02710174  RH  055%=      5-min Rain = 0
KWE2 151519Z 25010KT 27/17 A2999 RMK A01 T02720172  RH  054%=      5-min Rain = 0
KWE2 151520Z 25012KT 27/17 A2999 RMK A01 T02730170  RH  053%=      5-min Rain = 0
KWE2 151521Z 25011KT 27/17 A2999 RMK A01 T02740169  RH  053%=      5-min Rain = 0
KWE2 151522Z 24010KT 28/17 A2999 RMK A01 T02780172  RH  053%=      5-min Rain = 0
KWE2 151523Z 24010KT 28/17 A2999 RMK A01 T02790173  RH  053%=      5-min Rain = 0
KWE2 151524Z 25010KT 28/17 A2999 RMK A01 T02780172  RH  053%=      5-min Rain = 0
KWE2 151525Z 24012KT 28/17 A2999 RMK A01 T02810169  RH  051%=      5-min Rain = 0
KWE2 151526Z 24011KT 28/17 A2999 RMK A01 T02820169  RH  050%=      5-min Rain = 0
KWE2 151527Z 24011KT 28/17 A2999 RMK A01 T02810170  RH  051%=      5-min Rain = 0
KWE2 151528Z 24010KT 28/17 A2999 RMK A01 T02790170  RH  052%=      5-min Rain = 0
KWE2 151529Z 24010KT 28/17 A2999 RMK A01 T02780170  RH  052%=      5-min Rain = 0
KWE2 151530Z 24010KT 28/17 A2999 RMK A01 T02770170  RH  052%=      5-min Rain = 0
KWE2 151531Z 24012KT 28/17 A2999 RMK A01 T02780168  RH  051%=      5-min Rain = 0
KWE2 151532Z 25012KT 28/17 A2999 RMK A01 T02830167  RH  049%=      5-min Rain = 0
KWE2 151533Z 25011KT 29/17 A2999 RMK A01 T02850167  RH  049%=      5-min Rain = 0
KWE2 151534Z 24010KT 28/17 A2999 RMK A01 T02830168  RH  049%=      5-min Rain = 0
KWE2 151535Z 24012KT 28/17 A2999 RMK A01 T02820166  RH  049%=      5-min Rain = 0
KWE2 151536Z 25013KT 28/16 A2999 RMK A01 T02840160  RH  047%=      5-min Rain = 0
KWE2 151537Z 26013KT 29/16 A2999 RMK A01 T02850162  RH  047%=      5-min Rain = 0
KWE2 151538Z 26011KT 29/16 A2999 RMK A01 T02870163  RH  047%=      5-min Rain = 0
KWE2 151539Z 25011KT 29/17 A2999 RMK A01 T02870166  RH  048%=      5-min Rain = 0
KWE2 151540Z 26012KT 29/17 A30 RMK A01 T02880166  RH  048%=      5-min Rain = 0
KWE2 151541Z 24011KT 29/17 A30 RMK A01 T02920166  RH  047%=      5-min Rain = 0
KWE2 151542Z 24010KT 29/17 A30 RMK A01 T02900167  RH  047%=      5-min Rain = 0
KWE2 151543Z 24012KT 29/17 A30 RMK A01 T02900167  RH  047%=      5-min Rain = 0
KWE2 151544Z 26010KT 29/17 A30 RMK A01 T02890166  RH  047%=      5-min Rain = 0
KWE2 151545Z 26012KT 29/16 A30 RMK A01 T02910164  RH  046%=      5-min Rain = 0
KWE2 151546Z 25012KT 30/16 A30 RMK A01 T02950163  RH  045%=      5-min Rain = 0
KWE2 151547Z 24013KT 30/17 A30 RMK A01 T02950165  RH  045%=      5-min Rain = 0
KWE2 151548Z 24012KT 30/16 A30 RMK A01 T02960161  RH  044%=      5-min Rain = 0
KWE2 151549Z 24014KT 30/16 A30 RMK A01 T02980159  RH  043%=      5-min Rain = 0
KWE2 151550Z 25014KT 30/16 A30 RMK A01 T02980160  RH  043%=      5-min Rain = 0
KWE2 151551Z 25012KT 30/16 A30 RMK A01 T02960161  RH  044%=      5-min Rain = 0
KWE2 151552Z 26011KT 30/16 A30 RMK A01 T02950162  RH  045%=      5-min Rain = 0
KWE2 151553Z 25011KT 30/16 A30 RMK A01 T02950164  RH  045%=      5-min Rain = 0
KWE2 151554Z 26011G16KT 30/16 A30 RMK A01 T02960161  RH  044%=      5-min Rain = 0
KWE2 151555Z 26012KT 30/16 A30 RMK A01 T02990156  RH  042%=      5-min Rain = 0
KWE2 151556Z 24012KT 30/16 A30 RMK A01 T02990158  RH  042%=      5-min Rain = 0
KWE2 151557Z 24011KT 30/16 A30 RMK A01 T02990162  RH  044%=      5-min Rain = 0
KWE2 151558Z 24010KT 30/16 A30 RMK A01 T02980162  RH  044%=      5-min Rain = 0
KWE2 151559Z 25012KT 30/16 A30 RMK A01 T02970160  RH  044%=      5-min Rain = 0
KWE2 151600Z 25012KT 30/16 A30 RMK A01 T02980158  RH  043%=      5-min Rain = 0
KWE2 151601Z 27012KT 30/15 A30 RMK A01 T02980154  RH  041%=      5-min Rain = 0
KWE2 151602Z 27012KT 30/16 A30 RMK A01 T03020155  RH  041%=      5-min Rain = 0
KWE2 151603Z 25011KT 30/16 A30 RMK A01 T03040156  RH  041%=      5-min Rain = 0
KWE2 151604Z 25010KT 30/16 A30 RMK A01 T03030157  RH  041%=      5-min Rain = 0
KWE2 151605Z 25010KT 30/15 A30 RMK A01 T03030154  RH  040%=      5-min Rain = 0
KWE2 151606Z 25011KT 30/15 A30 RMK A01 T03030154  RH  040%=      5-min Rain = 0
KWE2 151607Z 25012KT 31/15 A30 RMK A01 T03050151  RH  039%=      5-min Rain = 0
KWE2 151608Z 25010KT 31/15 A30 RMK A01 T03100149  RH  038%=      5-min Rain = 0
KWE2 151609Z 26011KT 31/15 A30 RMK A01 T03090149  RH  038%=      5-min Rain = 0
KWE2 151610Z 25012KT 31/15 A30 RMK A01 T03090151  RH  038%=      5-min Rain = 0
KWE2 151611Z 24011KT 31/16 A30 RMK A01 T03070158  RH  040%=      5-min Rain = 0
KWE2 151612Z 24011KT 31/16 A30 RMK A01 T03070156  RH  040%=      5-min Rain = 0
KWE2 151613Z 24008KT 31/16 A30 RMK A01 T03070156  RH  040%=      5-min Rain = 0
KWE2 151614Z 24010KT 31/15 A2999 RMK A01 T03050154  RH  040%=      5-min Rain = 0
KWE2 151615Z 26010KT 31/15 A2999 RMK A01 T03080153  RH  039%=      5-min Rain = 0
KWE2 151616Z 26010KT 31/15 A2999 RMK A01 T03100150  RH  038%=      5-min Rain = 0
KWE2 151617Z 25011KT 31/15 A2999 RMK A01 T03100153  RH  039%=      5-min Rain = 0
KWE2 151618Z 25010KT 31/15 A2999 RMK A01 T03090152  RH  039%=      5-min Rain = 0
KWE2 151619Z 24013KT 31/15 A2999 RMK A01 T03080146  RH  037%=      5-min Rain = 0
KWE2 151620Z 26012KT 31/14 A2999 RMK A01 T03100138  RH  035%=      5-min Rain = 0
KWE2 151621Z 25010KT 31/14 A2999 RMK A01 T03130141  RH  035%=      5-min Rain = 0
KWE2 151622Z 24008KT 32/15 A2999 RMK A01 T03150145  RH  036%=      5-min Rain = 0
KWE2 151623Z 26011KT 32/14 A2999 RMK A01 T03190142  RH  034%=      5-min Rain = 0
KWE2 151624Z 28011KT 32/14 A2999 RMK A01 T03220138  RH  033%=      5-min Rain = 0
KWE2 151625Z 27011KT 32/14 A2999 RMK A01 T03220140  RH  033%=      5-min Rain = 0
KWE2 151626Z 25010KT 32/15 A2999 RMK A01 T03210145  RH  034%=      5-min Rain = 0
KWE2 151627Z 25010KT 32/14 A2999 RMK A01 T03200138  RH  033%=      5-min Rain = 0
KWE2 151628Z 26012KT 32/14 A2999 RMK A01 T03170138  RH  034%=      5-min Rain = 0
KWE2 151629Z 25010KT 32/14 A2999 RMK A01 T03180138  RH  033%=      5-min Rain = 0
KWE2 151630Z 24009KT 32/14 A2999 RMK A01 T03180141  RH  034%=      5-min Rain = 0
KWE2 151631Z 25010KT 32/14 A2999 RMK A01 T03180139  RH  034%=      5-min Rain = 0
KWE2 151632Z 27011KT 32/14 A2999 RMK A01 T03210138  RH  033%=      5-min Rain = 0
KWE2 151633Z 27009KT 32/14 A2999 RMK A01 T03230138  RH  033%=      5-min Rain = 0
KWE2 151634Z 26007G12KT 32/14 A2999 RMK A01 T03210140  RH  033%=      5-min Rain = 0
KWE2 151635Z 27013KT 32/14 A2999 RMK A01 T03230135  RH  032%=      5-min Rain = 0
KWE2 151636Z 27011KT 33/13 A2999 RMK A01 T03260131  RH  031%=      5-min Rain = 0
KWE2 151637Z 28011KT 33/13 A2999 RMK A01 T03260131  RH  030%=      5-min Rain = 0
KWE2 151638Z 29010KT 33/13 A2999 RMK A01 T03260132  RH  031%=      5-min Rain = 0
KWE2 151639Z 26011KT 33/13 A30 RMK A01 T03260134  RH  031%=      5-min Rain = 0
KWE2 151640Z 26012KT 33/13 A2999 RMK A01 T03310126  RH  029%=      5-min Rain = 0
KWE2 151641Z 28012KT 33/13 A30 RMK A01 T03310126  RH  029%=      5-min Rain = 0
KWE2 151642Z 28012KT 33/13 A30 RMK A01 T03320130  RH  029%=      5-min Rain = 0
KWE2 151643Z 28011KT 33/13 A30 RMK A01 T03320130  RH  029%=      5-min Rain = 0
KWE2 151644Z 30012KT 34/13 A30 RMK A01 T03350132  RH  029%=      5-min Rain = 0
KWE2 151645Z 28013KT 34/13 A30 RMK A01 T03360129  RH  029%=      5-min Rain = 0
KWE2 151646Z 28009KT 33/13 A30 RMK A01 T03310128  RH  029%=      5-min Rain = 0
KWE2 151647Z 31009KT 33/13 A30 RMK A01 T03310129  RH  029%=      5-min Rain = 0
KWE2 151648Z 30012KT 33/13 A30 RMK A01 T03320126  RH  029%=      5-min Rain = 0
KWE2 151649Z 30011KT 33/13 A30 RMK A01 T03330127  RH  029%=      5-min Rain = 0
KWE2 151650Z 30010KT 33/13 A30 RMK A01 T03320127  RH  029%=      5-min Rain = 0
KWE2 151651Z 31013KT 33/13 A30 RMK A01 T03310125  RH  029%=      5-min Rain = 0
KWE2 151652Z 30011KT 33/12 A30 RMK A01 T03300119  RH  028%=      5-min Rain = 0
KWE2 151653Z 29012G17KT 33/12 A30 RMK A01 T03300118  RH  028%=      5-min Rain = 0
KWE2 151654Z 28012KT 34/11 A30 RMK A01 T03380110  RH  025%=      5-min Rain = 0
KWE2 151655Z 30011KT 34/11 A30 RMK A01 T03390108  RH  024%=      5-min Rain = 0
KWE2 151656Z 30012KT 34/10 A30 RMK A01 T03360103  RH  024%=      5-min Rain = 0
KWE2 151657Z 29006KT 33/11 A30 RMK A01 T03330110  RH  026%=      5-min Rain = 0
KWE2 151658Z 31005KT 33/11 A30 RMK A01 T03310108  RH  026%=      5-min Rain = 0
KWE2 151659Z 29006KT 33/11 A30 RMK A01 T03300107  RH  026%=      5-min Rain = 0
KWE2 151700Z 27006KT 33/11 A30 RMK A01 T03300112  RH  027%=      5-min Rain = 0
KWE2 151701Z 29008KT 33/11 A30 RMK A01 T03320105  RH  025%=      5-min Rain = 0
KWE2 151702Z 29009KT 34/09 A30 RMK A01 T03350094  RH  023%=      5-min Rain = 0
KWE2 151703Z 29009KT 34/10 A30 RMK A01 T03350104  RH  024%=      5-min Rain = 0
KWE2 151704Z 30009KT 33/11 A30 RMK A01 T03340106  RH  025%=      5-min Rain = 0
KWE2 151705Z 30010KT 34/11 A30 RMK A01 T03360110  RH  025%=      5-min Rain = 0
KWE2 151706Z 29011KT 34/10 A30 RMK A01 T03350101  RH  024%=      5-min Rain = 0
KWE2 151707Z 29007KT 34/08 A30 RMK A01 T03370084  RH  021%=      5-min Rain = 0
KWE2 151708Z 28003KT 34/08 A30 RMK A01 T03370083  RH  021%=      5-min Rain = 0
KWE2 151709Z 30007KT 34/10 A30 RMK A01 T03360101  RH  024%=      5-min Rain = 0
KWE2 151710Z 34012KT 34/10 A30 RMK A01 T03350104  RH  024%=      5-min Rain = 0
KWE2 151711Z 33010KT 33/10 A30 RMK A01 T03340101  RH  024%=      5-min Rain = 0
KWE2 151712Z 34009KT 33/10 A30 RMK A01 T03340102  RH  024%=      5-min Rain = 0
KWE2 151713Z 34010KT 33/10 A30 RMK A01 T03330103  RH  024%=      5-min Rain = 0
KWE2 151714Z 32014KT 34/11 A30 RMK A01 T03370106  RH  024%=      5-min Rain = 0
KWE2 151715Z 32010KT 34/11 A30 RMK A01 T03410105  RH  024%=      5-min Rain = 0
KWE2 151716Z 33010KT 34/10 A30 RMK A01 T03410104  RH  024%=      5-min Rain = 0
KWE2 151717Z 33007KT 34/10 A30 RMK A01 T03400104  RH  024%=      5-min Rain = 0
KWE2 151718Z 34005G10KT 34/10 A30 RMK A01 T03380103  RH  024%=      5-min Rain = 0
KWE2 151719Z 28007KT 34/10 A30 RMK A01 T03370103  RH  024%=      5-min Rain = 0
KWE2 151720Z 29007KT 34/10 A30 RMK A01 T03380103  RH  024%=      5-min Rain = 0
KWE2 151721Z 31007G12KT 34/10 A30 RMK A01 T03360101  RH  024%=      5-min Rain = 0
KWE2 151722Z 29009KT 34/10 A30 RMK A01 T03380101  RH  023%=      5-min Rain = 0
KWE2 151723Z 28008KT 34/10 A30 RMK A01 T03430100  RH  023%=      5-min Rain = 0
KWE2 151724Z 29005KT 34/10 A30 RMK A01 T03430098  RH  022%=      5-min Rain = 0
KWE2 151725Z 35004KT 34/11 A30 RMK A01 T03420106  RH  024%=      5-min Rain = 0
KWE2 151726Z 34003KT 34/11 A30 RMK A01 T03400111  RH  025%=      5-min Rain = 0
KWE2 151727Z 31006KT 34/11 A30 RMK A01 T03380109  RH  025%=      5-min Rain = 0
KWE2 151728Z 31011KT 34/10 A30 RMK A01 T03430102  RH  023%=      5-min Rain = 0
KWE2 151729Z 30012KT 35/10 A30 RMK A01 T03500101  RH  022%=      5-min Rain = 0
KWE2 151730Z 30011KT 35/10 A30 RMK A01 T03460100  RH  022%=      5-min Rain = 0
KWE2 151731Z 29007KT 34/10 A30 RMK A01 T03430101  RH  023%=      5-min Rain = 0
KWE2 151732Z 27002KT 34/10 A30 RMK A01 T03410102  RH  023%=      5-min Rain = 0
KWE2 151733Z 26003KT 34/10 A30 RMK A01 T03390101  RH  023%=      5-min Rain = 0
KWE2 151734Z 24001KT 34/10 A2999 RMK A01 T03390099  RH  023%=      5-min Rain = 0
KWE2 151735Z 36003KT 34/10 A2999 RMK A01 T03390098  RH  023%=      5-min Rain = 0
KWE2 151736Z 34003KT 34/10 A2999 RMK A01 T03420095  RH  022%=      5-min Rain = 0
KWE2 151737Z 35003KT 34/10 A2999 RMK A01 T03420098  RH  022%=      5-min Rain = 0
KWE2 151738Z 35009KT 34/11 A2999 RMK A01 T03430105  RH  023%=      5-min Rain = 0
KWE2 151739Z 35011KT 34/11 A30 RMK A01 T03420110  RH  024%=      5-min Rain = 0
KWE2 151740Z 36006KT 34/11 A30 RMK A01 T03390109  RH  025%=      5-min Rain = 0
KWE2 151741Z 35011KT 34/11 A2999 RMK A01 T03380106  RH  024%=      5-min Rain = 0
KWE2 151742Z 35012KT 34/11 A2999 RMK A01 T03370105  RH  024%=      5-min Rain = 0
KWE2 151743Z 35010KT 34/10 A2999 RMK A01 T03370103  RH  024%=      5-min Rain = 0
KWE2 151744Z 36005KT 34/10 A2999 RMK A01 T03400100  RH  023%=      5-min Rain = 0
KWE2 151745Z 35004KT 34/10 A2999 RMK A01 T03390100  RH  023%=      5-min Rain = 0
KWE2 151746Z 33011G19KT 34/10 A2999 RMK A01 T03380101  RH  023%=      5-min Rain = 0
KWE2 151747Z 33016KT 34/10 A2999 RMK A01 T03430099  RH  023%=      5-min Rain = 0
KWE2 151748Z 33016KT 34/10 A2999 RMK A01 T03430096  RH  022%=      5-min Rain = 0
KWE2 151749Z 32012KT 34/10 A2999 RMK A01 T03390095  RH  022%=      5-min Rain = 0
KWE2 151750Z 32008KT 34/09 A2999 RMK A01 T03360094  RH  023%=      5-min Rain = 0
KWE2 151751Z 35013KT 34/09 A2999 RMK A01 T03370094  RH  023%=      5-min Rain = 0
KWE2 151752Z 32011KT 34/09 A2999 RMK A01 T03380091  RH  022%=      5-min Rain = 0
KWE2 151753Z 35012G17KT 34/09 A2999 RMK A01 T03390089  RH  022%=      5-min Rain = 0
KWE2 151754Z 36008KT 34/09 A2999 RMK A01 T03410087  RH  021%=      5-min Rain = 0
KWE2 151755Z 36002KT 34/09 A2999 RMK A01 T03400085  RH  021%=      5-min Rain = 0
KWE2 151756Z 05002KT 34/09 A2999 RMK A01 T03400086  RH  021%=      5-min Rain = 0
KWE2 151757Z 35005KT 34/09 A2999 RMK A01 T03400088  RH  021%=      5-min Rain = 0
KWE2 151758Z 00008KT 34/09 A2999 RMK A01 T03420090  RH  021%=      5-min Rain = 0
KWE2 151759Z 03009KT 34/09 A2999 RMK A01 T03420089  RH  021%=      5-min Rain = 0
KWE2 151800Z 02009KT 34/09 A2999 RMK A01 T03440089  RH  021%=      5-min Rain = 0
KWE2 151801Z 03009KT 35/09 A2999 RMK A01 T03460088  RH  021%=      5-min Rain = 0
KWE2 151802Z 03009KT 34/09 A2999 RMK A01 T03440087  RH  021%=      5-min Rain = 0
KWE2 151803Z 35013G22KT 34/09 A2998 RMK A01 T03430086  RH  021%=      5-min Rain = 0
KWE2 151804Z 32011G17KT 34/09 A2998 RMK A01 T03430085  RH  020%=      5-min Rain = 0
KWE2 151805Z 31009KT 35/09 A2999 RMK A01 T03460085  RH  020%=      5-min Rain = 0
KWE2 151806Z 28006KT 34/08 A2998 RMK A01 T03440083  RH  020%=      5-min Rain = 0
KWE2 151807Z 33013KT 35/09 A2998 RMK A01 T03460092  RH  021%=      5-min Rain = 0
KWE2 151808Z 01011KT 35/09 A2998 RMK A01 T03520094  RH  021%=      5-min Rain = 0
KWE2 151809Z 01012KT 35/10 A2998 RMK A01 T03470096  RH  022%=      5-min Rain = 0
KWE2 151810Z 02014KT 34/10 A2998 RMK A01 T03440099  RH  022%=      5-min Rain = 0
KWE2 151811Z 02014KT 34/10 A2998 RMK A01 T03440101  RH  023%=      5-min Rain = 0
KWE2 151812Z 01011KT 34/10 A2998 RMK A01 T03380101  RH  023%=      5-min Rain = 0
KWE2 151813Z 02011KT 34/10 A2998 RMK A01 T03380103  RH  024%=      5-min Rain = 0
KWE2 151814Z 05013KT 34/10 A2998 RMK A01 T03400104  RH  024%=      5-min Rain = 0
KWE2 151815Z 04011KT 34/10 A2998 RMK A01 T03400104  RH  024%=      5-min Rain = 0
KWE2 151816Z 04010KT 34/10 A2998 RMK A01 T03400103  RH  024%=      5-min Rain = 0
KWE2 151817Z 04009KT 34/10 A2998 RMK A01 T03350102  RH  024%=      5-min Rain = 0
KWE2 151818Z 02008KT 34/10 A2998 RMK A01 T03350101  RH  024%=      5-min Rain = 0
KWE2 151819Z 00011KT 34/10 A2998 RMK A01 T03420101  RH  023%=      5-min Rain = 0
KWE2 151820Z 36011KT 35/10 A2998 RMK A01 T03450098  RH  022%=      5-min Rain = 0
KWE2 151821Z 35010KT 34/10 A2998 RMK A01 T03440097  RH  022%=      5-min Rain = 0
KWE2 151822Z 34010KT 34/10 A2998 RMK A01 T03440099  RH  022%=      5-min Rain = 0
KWE2 151823Z 34008KT 35/10 A2998 RMK A01 T03480098  RH  022%=      5-min Rain = 0
KWE2 151824Z 36011KT 35/10 A2998 RMK A01 T03490098  RH  022%=      5-min Rain = 0
KWE2 151825Z 03010KT 35/10 A2998 RMK A01 T03500100  RH  022%=      5-min Rain = 0
KWE2 151826Z 01014KT 35/10 A2998 RMK A01 T03510099  RH  022%=      5-min Rain = 0
KWE2 151827Z 01016KT 35/10 A2998 RMK A01 T03500095  RH  021%=      5-min Rain = 0
KWE2 151828Z 01010KT 35/09 A2998 RMK A01 T03450089  RH  021%=      5-min Rain = 0
KWE2 151829Z 04009KT 34/09 A2998 RMK A01 T03430091  RH  021%=      5-min Rain = 0
KWE2 151830Z 04008KT 34/09 A2998 RMK A01 T03440091  RH  021%=      5-min Rain = 0
KWE2 151831Z 05009KT 34/09 A2998 RMK A01 T03420092  RH  022%=      5-min Rain = 0
KWE2 151832Z 01012KT 35/09 A2998 RMK A01 T03450091  RH  021%=      5-min Rain = 0
KWE2 151833Z 02010KT 35/09 A2998 RMK A01 T03470087  RH  020%=      5-min Rain = 0
KWE2 151834Z 01012KT 35/09 A2998 RMK A01 T03500088  RH  020%=      5-min Rain = 0
KWE2 151835Z 00012KT 35/09 A2998 RMK A01 T03530088  RH  020%=      5-min Rain = 0
KWE2 151836Z 01011KT 35/09 A2998 RMK A01 T03500088  RH  020%=      5-min Rain = 0
KWE2 151837Z 03011KT 35/09 A2998 RMK A01 T03480091  RH  021%=      5-min Rain = 0
KWE2 151838Z 04009KT 35/09 A2998 RMK A01 T03480094  RH  021%=      5-min Rain = 0
KWE2 151839Z 02012KT 35/09 A2998 RMK A01 T03510092  RH  021%=      5-min Rain = 0
KWE2 151840Z 01015KT 35/09 A2997 RMK A01 T03510087  RH  020%=      5-min Rain = 0
KWE2 151841Z 35014KT 35/08 A2997 RMK A01 T03500084  RH  020%=      5-min Rain = 0
KWE2 151842Z 34011KT 35/08 A2998 RMK A01 T03480083  RH  020%=      5-min Rain = 0
KWE2 151843Z 01008KT 35/08 A2998 RMK A01 T03480082  RH  020%=      5-min Rain = 0
KWE2 151844Z 01006KT 35/08 A2998 RMK A01 T03480083  RH  020%=      5-min Rain = 0
KWE2 151845Z 01005KT 35/08 A2998 RMK A01 T03470081  RH  020%=      5-min Rain = 0
KWE2 151846Z 03010KT 34/08 A2998 RMK A01 T03430082  RH  020%=      5-min Rain = 0
KWE2 151847Z 04009KT 35/08 A2998 RMK A01 T03450081  RH  020%=      5-min Rain = 0
KWE2 151848Z 04006KT 35/08 A2998 RMK A01 T03450080  RH  020%=      5-min Rain = 0
KWE2 151849Z 03008KT 34/08 A2998 RMK A01 T03440082  RH  020%=      5-min Rain = 0
KWE2 151850Z 06007KT 35/08 A2997 RMK A01 T03460081  RH  020%=      5-min Rain = 0
KWE2 151851Z 07006KT 35/08 A2997 RMK A01 T03450081  RH  020%=      5-min Rain = 0
KWE2 151852Z 05005KT 35/08 A2997 RMK A01 T03450083  RH  020%=      5-min Rain = 0
KWE2 151853Z 03006G12KT 35/08 A2997 RMK A01 T03450083  RH  020%=      5-min Rain = 0
KWE2 151854Z 05013KT 34/08 A2997 RMK A01 T03430084  RH  020%=      5-min Rain = 0
KWE2 151855Z 03008KT 34/09 A2997 RMK A01 T03440085  RH  020%=      5-min Rain = 0
KWE2 151856Z 03007KT 34/08 A2997 RMK A01 T03440084  RH  020%=      5-min Rain = 0
KWE2 151857Z 02009KT 35/09 A2997 RMK A01 T03470086  RH  020%=      5-min Rain = 0
KWE2 151858Z 01012KT 35/08 A2997 RMK A01 T03510082  RH  019%=      5-min Rain = 0
KWE2 151859Z 01011KT 35/08 A2997 RMK A01 T03500081  RH  019%=      5-min Rain = 0
KWE2 151900Z 35008KT 35/08 A2997 RMK A01 T03490079  RH  019%=      5-min Rain = 0
KWE2 151901Z 00007KT 35/08 A2997 RMK A01 T03450079  RH  019%=      5-min Rain = 0
KWE2 151902Z 03008G13KT 35/09 A2997 RMK A01 T03460085  RH  020%=      5-min Rain = 0
KWE2 151903Z 02008KT 35/08 A2997 RMK A01 T03500079  RH  019%=      5-min Rain = 0
KWE2 151904Z 01006G11KT 35/08 A2997 RMK A01 T03510075  RH  018%=      5-min Rain = 0
KWE2 151905Z 00006KT 35/07 A2997 RMK A01 T03480073  RH  018%=      5-min Rain = 0
KWE2 151906Z 35008KT 35/08 A2997 RMK A01 T03470078  RH  019%=      5-min Rain = 0
KWE2 151907Z 01008KT 35/08 A2997 RMK A01 T03540084  RH  019%=      5-min Rain = 0
KWE2 151908Z 02009G14KT 36/09 A2997 RMK A01 T03570086  RH  019%=      5-min Rain = 0
KWE2 151909Z 03011KT 36/09 A2997 RMK A01 T03560086  RH  019%=      5-min Rain = 0
KWE2 151910Z 03013KT 35/09 A2997 RMK A01 T03520085  RH  020%=      5-min Rain = 0
KWE2 151911Z 03014G20KT 35/08 A2997 RMK A01 T03520083  RH  019%=      5-min Rain = 0
KWE2 151912Z 03013KT 35/08 A2997 RMK A01 T03540081  RH  019%=      5-min Rain = 0
KWE2 151913Z 04006KT 35/08 A2997 RMK A01 T03500076  RH  019%=      5-min Rain = 0
KWE2 151914Z 03009KT 35/08 A2997 RMK A01 T03460078  RH  019%=      5-min Rain = 0
KWE2 151915Z 03004KT 35/08 A2997 RMK A01 T03500080  RH  019%=      5-min Rain = 0
KWE2 151916Z 08003KT 35/08 A2997 RMK A01 T03520078  RH  019%=      5-min Rain = 0
KWE2 151917Z 01007G12KT 35/08 A2997 RMK A01 T03520081  RH  019%=      5-min Rain = 0
KWE2 151918Z 02010KT 35/08 A2996 RMK A01 T03530081  RH  019%=      5-min Rain = 0
KWE2 151919Z 02007KT 36/08 A2997 RMK A01 T03560083  RH  019%=      5-min Rain = 0
KWE2 151920Z 06008KT 36/08 A2996 RMK A01 T03580084  RH  019%=      5-min Rain = 0
KWE2 151921Z 05004KT 36/08 A2997 RMK A01 T03550083  RH  019%=      5-min Rain = 0
KWE2 151922Z 02009KT 35/08 A2996 RMK A01 T03510083  RH  019%=      5-min Rain = 0
KWE2 151923Z 02008KT 35/08 A2996 RMK A01 T03510084  RH  020%=      5-min Rain = 0
KWE2 151924Z 03005KT 35/08 A2996 RMK A01 T03480083  RH  020%=      5-min Rain = 0
KWE2 151925Z 04006G11KT 35/08 A2996 RMK A01 T03450082  RH  020%=      5-min Rain = 0
KWE2 151926Z 06011KT 35/08 A2996 RMK A01 T03450084  RH  020%=      5-min Rain = 0
KWE2 151927Z 05006KT 35/08 A2996 RMK A01 T03460084  RH  020%=      5-min Rain = 0
KWE2 151928Z 35010KT 35/09 A2996 RMK A01 T03460085  RH  020%=      5-min Rain = 0
KWE2 151929Z 35010KT 35/09 A2996 RMK A01 T03530086  RH  019%=      5-min Rain = 0
KWE2 151930Z 02010KT 36/08 A2996 RMK A01 T03570082  RH  019%=      5-min Rain = 0
KWE2 151931Z 36009KT 35/08 A2996 RMK A01 T03490077  RH  019%=      5-min Rain = 0
KWE2 151932Z 01004KT 34/08 A2996 RMK A01 T03420077  RH  019%=      5-min Rain = 0
KWE2 151933Z 04005KT 34/08 A2996 RMK A01 T03400076  RH  020%=      5-min Rain = 0
KWE2 151934Z 36008KT 34/07 A2996 RMK A01 T03380074  RH  020%=      5-min Rain = 0
KWE2 151935Z 36011KT 34/07 A2996 RMK A01 T03370073  RH  020%=      5-min Rain = 0
KWE2 151936Z 35010KT 34/07 A2996 RMK A01 T03370074  RH  020%=      5-min Rain = 0
KWE2 151937Z 00010KT 34/08 A2996 RMK A01 T03370075  RH  020%=      5-min Rain = 0
KWE2 151938Z 02005KT 34/08 A2996 RMK A01 T03350075  RH  020%=      5-min Rain = 0
KWE2 151939Z 01006KT 33/08 A2996 RMK A01 T03330075  RH  020%=      5-min Rain = 0
KWE2 151940Z 35005KT 33/08 A2996 RMK A01 T03330076  RH  020%=      5-min Rain = 0
KWE2 151941Z 35006KT 34/08 A2996 RMK A01 T03350075  RH  020%=      5-min Rain = 0
KWE2 151942Z 01006KT 34/08 A2996 RMK A01 T03350076  RH  020%=      5-min Rain = 0
KWE2 151943Z 01005KT 34/08 A2996 RMK A01 T03350075  RH  020%=      5-min Rain = 0
KWE2 151944Z 02004KT 33/08 A2996 RMK A01 T03330075  RH  020%=      5-min Rain = 0
KWE2 151945Z 03007KT 34/08 A2996 RMK A01 T03350076  RH  020%=      5-min Rain = 0
KWE2 151946Z 05005KT 34/08 A2996 RMK A01 T03350075  RH  020%=      5-min Rain = 0
KWE2 151947Z 09004KT 33/07 A2996 RMK A01 T03340074  RH  020%=      5-min Rain = 0
KWE2 151948Z 06003KT 33/07 A2996 RMK A01 T03330073  RH  020%=      5-min Rain = 0
KWE2 151949Z 02001KT 33/07 A2996 RMK A01 T03310073  RH  020%=      5-min Rain = 0
KWE2 151950Z 01001KT 33/07 A2996 RMK A01 T03310073  RH  020%=      5-min Rain = 0
KWE2 151951Z 33001KT 33/07 A2996 RMK A01 T03310074  RH  020%=      5-min Rain = 0
KWE2 151952Z 35003KT 33/08 A2996 RMK A01 T03310077  RH  021%=      5-min Rain = 0
KWE2 151953Z 02002KT 33/08 A2996 RMK A01 T03320080  RH  021%=      5-min Rain = 0
KWE2 151954Z 01002KT 33/08 A2996 RMK A01 T03330080  RH  021%=      5-min Rain = 0
KWE2 151955Z 02001KT 33/08 A2996 RMK A01 T03340079  RH  021%=      5-min Rain = 0
KWE2 151956Z 34002KT 33/08 A2996 RMK A01 T03340079  RH  021%=      5-min Rain = 0
KWE2 151957Z 31003KT 33/08 A2996 RMK A01 T03330079  RH  021%=      5-min Rain = 0
KWE2 151958Z 29002KT 33/08 A2996 RMK A01 T03330078  RH  021%=      5-min Rain = 0
KWE2 151959Z 28002KT 33/08 A2996 RMK A01 T03330079  RH  021%=      5-min Rain = 0
KWE2 152000Z 29003KT 33/08 A2996 RMK A01 T03330079  RH  021%=      5-min Rain = 0
KWE2 152001Z 34005KT 33/08 A2995 RMK A01 T03330080  RH  021%=      5-min Rain = 0
KWE2 152002Z 29004KT 33/08 A2996 RMK A01 T03340079  RH  021%=      5-min Rain = 0
KWE2 152003Z 26007KT 34/08 A2995 RMK A01 T03350079  RH  021%=      5-min Rain = 0
KWE2 152004Z 25005KT 34/08 A2995 RMK A01 T03370079  RH  020%=      5-min Rain = 0
KWE2 152005Z 24005KT 34/08 A2995 RMK A01 T03360078  RH  020%=      5-min Rain = 0
KWE2 152006Z 24004KT 33/08 A2995 RMK A01 T03340077  RH  020%=      5-min Rain = 0
KWE2 152007Z 26003KT 33/08 A2995 RMK A01 T03330077  RH  020%=      5-min Rain = 0
KWE2 152008Z 23005KT 34/08 A2995 RMK A01 T03350075  RH  020%=      5-min Rain = 0
KWE2 152009Z 25006KT 34/08 A2995 RMK A01 T03360075  RH  020%=      5-min Rain = 0
KWE2 152010Z 23006KT 34/07 A2995 RMK A01 T03370074  RH  020%=      5-min Rain = 0
KWE2 152011Z 23007KT 34/08 A2995 RMK A01 T03370075  RH  020%=      5-min Rain = 0
KWE2 152012Z 20007KT 34/08 A2996 RMK A01 T03360077  RH  020%=      5-min Rain = 0
KWE2 152013Z 18009KT 34/09 A2996 RMK A01 T03370086  RH  021%=      5-min Rain = 0
KWE2 152014Z 18009KT 33/08 A2996 RMK A01 T03340084  RH  021%=      5-min Rain = 0
KWE2 152015Z 17009KT 33/08 A2995 RMK A01 T03320084  RH  022%=      5-min Rain = 0
KWE2 152016Z 18009KT 33/08 A2995 RMK A01 T03300082  RH  022%=      5-min Rain = 0
KWE2 152017Z 16008KT 33/08 A2995 RMK A01 T03270082  RH  022%=      5-min Rain = 0
KWE2 152018Z 15007KT 33/08 A2995 RMK A01 T03270082  RH  022%=      5-min Rain = 0
KWE2 152019Z 14007KT 33/09 A2995 RMK A01 T03290090  RH  023%=      5-min Rain = 0
KWE2 152020Z 15006KT 33/10 A2995 RMK A01 T03280097  RH  024%=      5-min Rain = 0
KWE2 152021Z 14005KT 33/10 A2995 RMK A01 T03280099  RH  025%=      5-min Rain = 0
KWE2 152022Z 11007KT 33/09 A2995 RMK A01 T03290091  RH  023%=      5-min Rain = 0
KWE2 152023Z 09006KT 33/08 A2995 RMK A01 T03290083  RH  022%=      5-min Rain = 0
KWE2 152024Z 07006KT 33/07 A2995 RMK A01 T03300074  RH  021%=      5-min Rain = 0
KWE2 152025Z 06005KT 33/07 A2995 RMK A01 T03310065  RH  019%=      5-min Rain = 0
KWE2 152026Z 05005KT 33/07 A2995 RMK A01 T03330065  RH  019%=      5-min Rain = 0
KWE2 152027Z 05006KT 34/07 A2995 RMK A01 T03360067  RH  019%=      5-min Rain = 0
KWE2 152028Z 05005KT 34/07 A2994 RMK A01 T03360065  RH  019%=      5-min Rain = 0
KWE2 152029Z 07003KT 33/07 A2994 RMK A01 T03330069  RH  019%=      5-min Rain = 0
KWE2 152030Z 08003KT 33/07 A2994 RMK A01 T03320071  RH  020%=      5-min Rain = 0
KWE2 152031Z 07004KT 33/07 A2994 RMK A01 T03320070  RH  020%=      5-min Rain = 0
KWE2 152032Z 09003KT 33/07 A2994 RMK A01 T03310073  RH  020%=      5-min Rain = 0
KWE2 152033Z 09003KT 33/07 A2994 RMK A01 T03310070  RH  020%=      5-min Rain = 0
KWE2 152034Z 07002KT 33/07 A2994 RMK A01 T03310070  RH  020%=      5-min Rain = 0
KWE2 152035Z 01004KT 33/07 A2994 RMK A01 T03310072  RH  020%=      5-min Rain = 0
KWE2 152036Z 03005KT 33/08 A2994 RMK A01 T03310076  RH  021%=      5-min Rain = 0
KWE2 152037Z 04005KT 33/08 A2994 RMK A01 T03310077  RH  021%=      5-min Rain = 0
KWE2 152038Z 02005KT 33/08 A2994 RMK A01 T03320075  RH  020%=      5-min Rain = 0
KWE2 152039Z 02005KT 33/08 A2994 RMK A01 T03320077  RH  021%=      5-min Rain = 0
KWE2 152040Z 04005KT 33/08 A2994 RMK A01 T03310077  RH  021%=      5-min Rain = 0
KWE2 152041Z 04006KT 33/08 A2994 RMK A01 T03310083  RH  022%=      5-min Rain = 0
KWE2 152042Z 05003KT 33/10 A2993 RMK A01 T03290102  RH  025%=      5-min Rain = 0
KWE2 152043Z 05003KT 33/10 A2993 RMK A01 T03270104  RH  026%=      5-min Rain = 0
KWE2 152044Z 08004KT 33/11 A2993 RMK A01 T03270106  RH  026%=      5-min Rain = 0
KWE2 152045Z 09004KT 33/11 A2993 RMK A01 T03270110  RH  026%=      5-min Rain = 0
KWE2 152046Z 10004KT 33/12 A2993 RMK A01 T03270119  RH  028%=      5-min Rain = 0
KWE2 152047Z 09005KT 33/11 A2993 RMK A01 T03270111  RH  027%=      5-min Rain = 0
KWE2 152048Z 13006KT 33/11 A2993 RMK A01 T03260106  RH  026%=      5-min Rain = 0
KWE2 152049Z 09004KT 33/11 A2993 RMK A01 T03250105  RH  026%=      5-min Rain = 0
KWE2 152050Z 04004KT 33/11 A2993 RMK A01 T03270105  RH  026%=      5-min Rain = 0
KWE2 152051Z 06003KT 33/10 A2993 RMK A01 T03280104  RH  025%=      5-min Rain = 0
KWE2 152052Z 09002KT 33/10 A2993 RMK A01 T03270103  RH  025%=      5-min Rain = 0
KWE2 152053Z 09002KT 33/10 A2993 RMK A01 T03270104  RH  025%=      5-min Rain = 0
KWE2 152054Z 12001KT 33/11 A2993 RMK A01 T03280105  RH  025%=      5-min Rain = 0
KWE2 152055Z 18001KT 33/11 A2993 RMK A01 T03280106  RH  026%=      5-min Rain = 0
KWE2 152056Z 14001KT 33/11 A2993 RMK A01 T03290106  RH  026%=      5-min Rain = 0
KWE2 152057Z 11003KT 33/11 A2993 RMK A01 T03300106  RH  025%=      5-min Rain = 0
KWE2 152058Z 11002KT 33/11 A2993 RMK A01 T03320108  RH  025%=      5-min Rain = 0
KWE2 152059Z 08003KT 33/11 A2993 RMK A01 T03340113  RH  026%=      5-min Rain = 0
KWE2 152100Z 07004KT 33/12 A2993 RMK A01 T03340117  RH  027%=      5-min Rain = 0
KWE2 152101Z 01005KT 34/12 A2993 RMK A01 T03360121  RH  027%=      5-min Rain = 0
KWE2 152102Z 01004KT 34/12 A2993 RMK A01 T03370122  RH  027%=      5-min Rain = 0
KWE2 152103Z 35003KT 34/12 A2993 RMK A01 T03360122  RH  027%=      5-min Rain = 0
KWE2 152104Z 01003KT 34/12 A2993 RMK A01 T03360121  RH  027%=      5-min Rain = 0
KWE2 152105Z 36005KT 34/12 A2993 RMK A01 T03390123  RH  027%=      5-min Rain = 0
KWE2 152106Z 02007KT 34/12 A2993 RMK A01 T03410122  RH  026%=      5-min Rain = 0
KWE2 152107Z 05008KT 34/12 A2993 RMK A01 T03430119  RH  026%=      5-min Rain = 0
KWE2 152108Z 06010KT 34/12 A2993 RMK A01 T03420115  RH  025%=      5-min Rain = 0
KWE2 152109Z 05010KT 34/12 A2993 RMK A01 T03420115  RH  025%=      5-min Rain = 0
KWE2 152110Z 05010KT 34/12 A2993 RMK A01 T03420115  RH  025%=      5-min Rain = 0
KWE2 152111Z 04010KT 34/12 A2993 RMK A01 T03430116  RH  025%=      5-min Rain = 0
KWE2 152112Z 04009KT 34/12 A2993 RMK A01 T03430115  RH  025%=      5-min Rain = 0
KWE2 152113Z 04009KT 34/12 A2992 RMK A01 T03420115  RH  025%=      5-min Rain = 0
KWE2 152114Z 04008KT 34/11 A2992 RMK A01 T03410113  RH  025%=      5-min Rain = 0
KWE2 152115Z 05008KT 34/11 A2992 RMK A01 T03400114  RH  025%=      5-min Rain = 0
KWE2 152116Z 05010KT 34/12 A2992 RMK A01 T03420120  RH  026%=      5-min Rain = 0
KWE2 152117Z 07008KT 34/12 A2992 RMK A01 T03430118  RH  026%=      5-min Rain = 0
KWE2 152118Z 04003KT 34/11 A2992 RMK A01 T03400114  RH  025%=      5-min Rain = 0
KWE2 152119Z 03005KT 34/11 A2992 RMK A01 T03360106  RH  025%=      5-min Rain = 0
KWE2 152120Z 08005KT 34/11 A2992 RMK A01 T03370111  RH  025%=      5-min Rain = 0
KWE2 152121Z 09004KT 34/08 A2992 RMK A01 T03390080  RH  020%=      5-min Rain = 0
KWE2 152122Z 08001KT 34/07 A2992 RMK A01 T03370070  RH  019%=      5-min Rain = 0
KWE2 152123Z 34002KT 34/07 A2992 RMK A01 T03370071  RH  019%=      5-min Rain = 0
KWE2 152124Z 30003KT 33/08 A2992 RMK A01 T03340075  RH  020%=      5-min Rain = 0
KWE2 152125Z 31003KT 33/08 A2992 RMK A01 T03320078  RH  021%=      5-min Rain = 0
KWE2 152126Z 33001KT 33/09 A2992 RMK A01 T03310085  RH  022%=      5-min Rain = 0
KWE2 152127Z 23003KT 33/07 A2992 RMK A01 T03320074  RH  020%=      5-min Rain = 0
KWE2 152128Z 26004KT 33/06 A2992 RMK A01 T03340062  RH  018%=      5-min Rain = 0
KWE2 152129Z 30006KT 34/05 A2992 RMK A01 T03380051  RH  017%=      5-min Rain = 0
KWE2 152130Z 32007G12KT 34/07 A2992 RMK A01 T03390065  RH  018%=      5-min Rain = 0
KWE2 152131Z 34013KT 34/08 A2991 RMK A01 T03410079  RH  020%=      5-min Rain = 0
KWE2 152132Z 36014KT 34/09 A2991 RMK A01 T03420088  RH  021%=      5-min Rain = 0
KWE2 152133Z 06010KT 34/09 A2991 RMK A01 T03400085  RH  021%=      5-min Rain = 0
KWE2 152134Z 06010KT 34/09 A2992 RMK A01 T03380087  RH  021%=      5-min Rain = 0
KWE2 152135Z 06006KT 34/10 A2992 RMK A01 T03360097  RH  023%=      5-min Rain = 0
KWE2 152136Z 01006KT 34/10 A2992 RMK A01 T03350098  RH  023%=      5-min Rain = 0
KWE2 152137Z 33007KT 34/10 A2992 RMK A01 T03360096  RH  023%=      5-min Rain = 0
KWE2 152138Z 30006KT 34/09 A2992 RMK A01 T03350091  RH  022%=      5-min Rain = 0
KWE2 152139Z 30006KT 33/06 A2992 RMK A01 T03340055  RH  018%=      5-min Rain = 0
KWE2 152140Z 30009KT 34/04 A2992 RMK A01 T03380043  RH  016%=      5-min Rain = 0
KWE2 152141Z 31010KT 34/04 A2992 RMK A01 T03390041  RH  015%=      5-min Rain = 0
KWE2 152142Z 33008KT 34/04 A2992 RMK A01 T03400041  RH  015%=      5-min Rain = 0
KWE2 152143Z 34011KT 34/04 A2992 RMK A01 T03400040  RH  015%=      5-min Rain = 0
KWE2 152144Z 34011KT 34/04 A2992 RMK A01 T03400040  RH  015%=      5-min Rain = 0
KWE2 152145Z 35009KT 34/04 A2992 RMK A01 T03380041  RH  016%=      5-min Rain = 0
KWE2 152146Z 35008KT 34/04 A2992 RMK A01 T03360039  RH  015%=      5-min Rain = 0
KWE2 152147Z 34007KT 34/04 A2992 RMK A01 T03350037  RH  015%=      5-min Rain = 0
KWE2 152148Z 32008KT 34/04 A2992 RMK A01 T03360038  RH  015%=      5-min Rain = 0
KWE2 152149Z 33008KT 34/04 A2992 RMK A01 T03380038  RH  015%=      5-min Rain = 0
KWE2 152150Z 35012KT 34/04 A2992 RMK A01 T03430040  RH  015%=      5-min Rain = 0
KWE2 152151Z 34010KT 35/04 A2992 RMK A01 T03470039  RH  015%=      5-min Rain = 0
KWE2 152152Z 33008KT 35/04 A2992 RMK A01 T03490040  RH  015%=      5-min Rain = 0
KWE2 152153Z 35011KT 35/04 A2992 RMK A01 T03510038  RH  014%=      5-min Rain = 0
KWE2 152154Z 36010KT 35/04 A2992 RMK A01 T03500039  RH  014%=      5-min Rain = 0
KWE2 152155Z 36008KT 35/04 A2992 RMK A01 T03480036  RH  014%=      5-min Rain = 0
KWE2 152156Z 34010KT 35/04 A2992 RMK A01 T03480039  RH  015%=      5-min Rain = 0
KWE2 152157Z 34013KT 35/04 A2992 RMK A01 T03500041  RH  015%=      5-min Rain = 0
KWE2 152158Z 32012KT 35/04 A2992 RMK A01 T03490038  RH  014%=      5-min Rain = 0
KWE2 152159Z 33012KT 35/04 A2992 RMK A01 T03480038  RH  014%=      5-min Rain = 0
KWE2 152200Z 32010KT 35/04 A2992 RMK A01 T03470039  RH  015%=      5-min Rain = 0
KWE2 152201Z 34011KT 35/04 A2992 RMK A01 T03470039  RH  015%=      5-min Rain = 0
KWE2 152202Z 33012KT 35/04 A2992 RMK A01 T03450038  RH  015%=      5-min Rain = 0
KWE2 152203Z 33013KT 35/04 A2993 RMK A01 T03450040  RH  015%=      5-min Rain = 0
KWE2 152204Z 32014G19KT 35/04 A2992 RMK A01 T03490041  RH  015%=      5-min Rain = 0
KWE2 152205Z 33022KT 35/04 A2992 RMK A01 T03490044  RH  015%=      5-min Rain = 0
KWE2 152206Z 33019G24KT 35/05 A2992 RMK A01 T03450045  RH  015%=      5-min Rain = 0
KWE2 152207Z 34015KT 34/05 A2992 RMK A01 T03430048  RH  016%=      5-min Rain = 0
KWE2 152208Z 35018KT 35/05 A2992 RMK A01 T03450049  RH  016%=      5-min Rain = 0
KWE2 152209Z 35019KT 34/05 A2992 RMK A01 T03440047  RH  016%=      5-min Rain = 0
KWE2 152210Z 00014G19KT 34/04 A2992 RMK A01 T03420042  RH  015%=      5-min Rain = 0
KWE2 152211Z 34011KT 34/04 A2992 RMK A01 T03390042  RH  016%=      5-min Rain = 0
KWE2 152212Z 32015G20KT 34/04 A2992 RMK A01 T03390042  RH  016%=      5-min Rain = 0
KWE2 152213Z 34016KT 35/04 A2992 RMK A01 T03450042  RH  015%=      5-min Rain = 0
KWE2 152214Z 36013G19KT 35/04 A2992 RMK A01 T03480038  RH  014%=      5-min Rain = 0
KWE2 152215Z 35014G19KT 34/04 A2992 RMK A01 T03420037  RH  015%=      5-min Rain = 0
KWE2 152216Z 36012KT 34/04 A2992 RMK A01 T03410038  RH  015%=      5-min Rain = 0
KWE2 152217Z 35013G18KT 34/04 A2992 RMK A01 T03420038  RH  015%=      5-min Rain = 0
KWE2 152218Z 33009KT 34/04 A2992 RMK A01 T03410037  RH  015%=      5-min Rain = 0
KWE2 152219Z 33010KT 34/04 A2992 RMK A01 T03420039  RH  015%=      5-min Rain = 0
KWE2 152220Z 34014KT 34/04 A2992 RMK A01 T03430041  RH  015%=      5-min Rain = 0
KWE2 152221Z 34009KT 35/04 A2992 RMK A01 T03450043  RH  015%=      5-min Rain = 0
KWE2 152222Z 35011KT 34/04 A2992 RMK A01 T03420044  RH  016%=      5-min Rain = 0
KWE2 152223Z 35015KT 34/04 A2992 RMK A01 T03420044  RH  016%=      5-min Rain = 0
KWE2 152224Z 34015KT 34/05 A2992 RMK A01 T03430046  RH  016%=      5-min Rain = 0
KWE2 152225Z 35012KT 34/04 A2992 RMK A01 T03430042  RH  015%=      5-min Rain = 0
KWE2 152226Z 33014KT 34/04 A2992 RMK A01 T03420043  RH  015%=      5-min Rain = 0
KWE2 152227Z 34011KT 34/04 A2992 RMK A01 T03410041  RH  015%=      5-min Rain = 0
KWE2 152228Z 36014KT 34/04 A2992 RMK A01 T03400043  RH  016%=      5-min Rain = 0
KWE2 152229Z 36014KT 34/04 A2992 RMK A01 T03410043  RH  016%=      5-min Rain = 0
KWE2 152230Z 35011KT 34/04 A2992 RMK A01 T03420044  RH  016%=      5-min Rain = 0
KWE2 152231Z 01013KT 34/04 A2992 RMK A01 T03420044  RH  016%=      5-min Rain = 0
KWE2 152232Z 01014KT 34/04 A2992 RMK A01 T03410043  RH  015%=      5-min Rain = 0
KWE2 152233Z 00012KT 34/04 A2992 RMK A01 T03390043  RH  016%=      5-min Rain = 0
KWE2 152234Z 34009KT 34/04 A2992 RMK A01 T03380042  RH  016%=      5-min Rain = 0
KWE2 152235Z 00006KT 34/04 A2992 RMK A01 T03400040  RH  015%=      5-min Rain = 0
KWE2 152236Z 36006KT 34/04 A2992 RMK A01 T03390041  RH  015%=      5-min Rain = 0
KWE2 152237Z 33006KT 34/04 A2992 RMK A01 T03400041  RH  015%=      5-min Rain = 0
KWE2 152238Z 03007KT 34/04 A2992 RMK A01 T03430042  RH  015%=      5-min Rain = 0
KWE2 152239Z 04009KT 35/04 A2991 RMK A01 T03450042  RH  015%=      5-min Rain = 0
KWE2 152240Z 04008KT 34/04 A2991 RMK A01 T03420039  RH  015%=      5-min Rain = 0
KWE2 152241Z 04007KT 34/04 A2991 RMK A01 T03410038  RH  015%=      5-min Rain = 0
KWE2 152242Z 06004KT 34/03 A2991 RMK A01 T03370034  RH  015%=      5-min Rain = 0
KWE2 152243Z 08002KT 34/03 A2991 RMK A01 T03350034  RH  015%=      5-min Rain = 0
KWE2 152244Z 05001KT 34/03 A2991 RMK A01 T03350034  RH  015%=      5-min Rain = 0
KWE2 152245Z 05003KT 34/04 A2991 RMK A01 T03350035  RH  015%=      5-min Rain = 0
KWE2 152246Z 08003KT 34/04 A2991 RMK A01 T03360036  RH  015%=      5-min Rain = 0
KWE2 152247Z 05002KT 34/04 A2991 RMK A01 T03370037  RH  015%=      5-min Rain = 0
KWE2 152248Z 05002KT 34/04 A2991 RMK A01 T03370037  RH  015%=      5-min Rain = 0
KWE2 152249Z 09002KT 34/04 A2991 RMK A01 T03370036  RH  015%=      5-min Rain = 0
KWE2 152250Z 08004KT 34/04 A2991 RMK A01 T03380037  RH  015%=      5-min Rain = 0
KWE2 152251Z 11004KT 34/04 A2991 RMK A01 T03390036  RH  015%=      5-min Rain = 0
KWE2 152252Z 13005KT 34/04 A2991 RMK A01 T03390035  RH  015%=      5-min Rain = 0
KWE2 152253Z 14006KT 34/03 A2991 RMK A01 T03390034  RH  015%=      5-min Rain = 0
KWE2 152254Z 13004KT 34/03 A2991 RMK A01 T03370034  RH  015%=      5-min Rain = 0
KWE2 152255Z 15003KT 34/04 A299 RMK A01 T03360035  RH  015%=      5-min Rain = 0
KWE2 152256Z 16003KT 34/03 A299 RMK A01 T03360034  RH  015%=      5-min Rain = 0
KWE2 152257Z 16005KT 34/04 A299 RMK A01 T03380036  RH  015%=      5-min Rain = 0
KWE2 152258Z 17005KT 34/04 A299 RMK A01 T03390035  RH  015%=      5-min Rain = 0
KWE2 152259Z 16004KT 34/04 A299 RMK A01 T03380036  RH  015%=      5-min Rain = 0
KWE2 152300Z 17007KT 34/04 A299 RMK A01 T03380038  RH  015%=      5-min Rain = 0
KWE2 152301Z 16005KT 34/04 A299 RMK A01 T03390037  RH  015%=      5-min Rain = 0
KWE2 152302Z 09004KT 34/04 A299 RMK A01 T03390037  RH  015%=      5-min Rain = 0
KWE2 152303Z 09006KT 34/04 A299 RMK A01 T03390037  RH  015%=      5-min Rain = 0
KWE2 152304Z 08008KT 34/04 A299 RMK A01 T03390036  RH  015%=      5-min Rain = 0
KWE2 152305Z 09006KT 34/04 A299 RMK A01 T03380035  RH  015%=      5-min Rain = 0
KWE2 152306Z 08006KT 34/04 A299 RMK A01 T03370036  RH  015%=      5-min Rain = 0
KWE2 152307Z 07004KT 34/04 A2989 RMK A01 T03390037  RH  015%=      5-min Rain = 0
KWE2 152308Z 08006KT 34/04 A2989 RMK A01 T03400037  RH  015%=      5-min Rain = 0
KWE2 152309Z 09009KT 34/04 A2989 RMK A01 T03400038  RH  015%=      5-min Rain = 0
KWE2 152310Z 10007KT 34/04 A2989 RMK A01 T03400039  RH  015%=      5-min Rain = 0
KWE2 152311Z 10007KT 34/04 A2989 RMK A01 T03390040  RH  015%=      5-min Rain = 0
KWE2 152312Z 09006KT 34/04 A2989 RMK A01 T03390040  RH  015%=      5-min Rain = 0
KWE2 152313Z 12006KT 34/04 A2989 RMK A01 T03390040  RH  015%=      5-min Rain = 0
KWE2 152314Z 14005KT 34/04 A2989 RMK A01 T03380039  RH  015%=      5-min Rain = 0
KWE2 152315Z 13003KT 34/04 A2989 RMK A01 T03380039  RH  015%=      5-min Rain = 0
KWE2 152316Z 09004KT 34/04 A2989 RMK A01 T03380043  RH  016%=      5-min Rain = 0
KWE2 152317Z 11006G11KT 34/06 A2989 RMK A01 T03380058  RH  017%=      5-min Rain = 0
KWE2 152318Z 11010KT 34/09 A2989 RMK A01 T03390089  RH  022%=      5-min Rain = 0
KWE2 152319Z 11009KT 34/09 A2989 RMK A01 T03370091  RH  022%=      5-min Rain = 0
KWE2 152320Z 13007KT 34/07 A2989 RMK A01 T03360071  RH  019%=      5-min Rain = 0
KWE2 152321Z 14004KT 34/06 A2989 RMK A01 T03360060  RH  018%=      5-min Rain = 0
KWE2 152322Z 12006KT 34/06 A2989 RMK A01 T03360063  RH  018%=      5-min Rain = 0
KWE2 152323Z 13005G10KT 34/08 A2989 RMK A01 T03360083  RH  021%=      5-min Rain = 0
KWE2 152324Z 10008KT 34/10 A2989 RMK A01 T03360095  RH  023%=      5-min Rain = 0
KWE2 152325Z 10009KT 34/09 A2989 RMK A01 T03360093  RH  023%=      5-min Rain = 0
KWE2 152326Z 11007KT 34/09 A2989 RMK A01 T03360085  RH  021%=      5-min Rain = 0
KWE2 152327Z 12009KT 34/08 A2989 RMK A01 T03370080  RH  021%=      5-min Rain = 0
KWE2 152328Z 12011KT 34/07 A2989 RMK A01 T03370074  RH  020%=      5-min Rain = 0
KWE2 152329Z 12010KT 34/07 A2989 RMK A01 T03380069  RH  019%=      5-min Rain = 0
KWE2 152330Z 13009KT 34/07 A2989 RMK A01 T03380069  RH  019%=      5-min Rain = 0
KWE2 152331Z 10009KT 34/08 A2989 RMK A01 T03380084  RH  021%=      5-min Rain = 0
KWE2 152332Z 10009KT 34/09 A2989 RMK A01 T03380089  RH  022%=      5-min Rain = 0
KWE2 152333Z 11008KT 34/10 A2989 RMK A01 T03380097  RH  023%=      5-min Rain = 0
KWE2 152334Z 12009KT 34/09 A2989 RMK A01 T03360094  RH  023%=      5-min Rain = 0
KWE2 152335Z 12010KT 34/09 A2989 RMK A01 T03360093  RH  023%=      5-min Rain = 0
KWE2 152336Z 12011KT 34/09 A2989 RMK A01 T03350091  RH  022%=      5-min Rain = 0
KWE2 152337Z 13009KT 33/09 A2989 RMK A01 T03340089  RH  022%=      5-min Rain = 0
KWE2 152338Z 13008KT 33/08 A2989 RMK A01 T03340083  RH  021%=      5-min Rain = 0
KWE2 152339Z 14010KT 33/09 A2989 RMK A01 T03340090  RH  022%=      5-min Rain = 0
KWE2 152340Z 12010KT 33/10 A2989 RMK A01 T03340098  RH  024%=      5-min Rain = 0
KWE2 152341Z 12011KT 33/10 A2989 RMK A01 T03340098  RH  024%=      5-min Rain = 0
KWE2 152342Z 13011KT 33/10 A2989 RMK A01 T03340099  RH  024%=      5-min Rain = 0
KWE2 152343Z 13008KT 33/10 A2989 RMK A01 T03330099  RH  024%=      5-min Rain = 0
KWE2 152344Z 13008KT 33/10 A2989 RMK A01 T03330101  RH  024%=      5-min Rain = 0
KWE2 152345Z 14011KT 33/10 A2989 RMK A01 T03340103  RH  024%=      5-min Rain = 0
KWE2 152346Z 14008KT 33/10 A2989 RMK A01 T03310101  RH  024%=      5-min Rain = 0
KWE2 152347Z 14009KT 33/10 A2989 RMK A01 T03290102  RH  025%=      5-min Rain = 0
KWE2 152348Z 15009KT 33/10 A2989 RMK A01 T03300102  RH  025%=      5-min Rain = 0
KWE2 152349Z 14009KT 33/11 A2989 RMK A01 T03310107  RH  025%=      5-min Rain = 0
KWE2 152350Z 14011KT 33/11 A2989 RMK A01 T03310106  RH  025%=      5-min Rain = 0
KWE2 152351Z 14010KT 33/11 A2989 RMK A01 T03320108  RH  025%=      5-min Rain = 0
KWE2 152352Z 13009KT 33/11 A2989 RMK A01 T03310112  RH  026%=      5-min Rain = 0
KWE2 152353Z 13012KT 33/11 A2989 RMK A01 T03310113  RH  026%=      5-min Rain = 0
KWE2 152354Z 13013KT 33/11 A2989 RMK A01 T03310112  RH  026%=      5-min Rain = 0
KWE2 152355Z 14012KT 33/11 A2989 RMK A01 T03300108  RH  026%=      5-min Rain = 0
KWE2 152356Z 13010KT 33/11 A2989 RMK A01 T03310106  RH  025%=      5-min Rain = 0
KWE2 152357Z 13009KT 33/11 A2989 RMK A01 T03300107  RH  025%=      5-min Rain = 0
KWE2 152358Z 14011KT 33/11 A2989 RMK A01 T03300106  RH  025%=      5-min Rain = 0
KWE2 152359Z 14012KT 33/11 A2989 RMK A01 T03300108  RH  026%=      5-min Rain = 0
KWE2 160000Z 14010KT 33/11 A2989 RMK A01 T03290109  RH  026%=      5-min Rain = 0
KWE2 160001Z 14010KT 33/11 A2989 RMK A01 T03280108  RH  026%=      5-min Rain = 0
KWE2 160002Z 14010KT 33/11 A2989 RMK A01 T03280108  RH  026%=      5-min Rain = 0
KWE2 160003Z 13010KT 33/11 A2989 RMK A01 T03290110  RH  026%=      5-min Rain = 0
KWE2 160004Z 15011KT 33/11 A2989 RMK A01 T03290108  RH  026%=      5-min Rain = 0
KWE2 160005Z 14010KT 33/11 A2989 RMK A01 T03290106  RH  026%=      5-min Rain = 0
KWE2 160006Z 14011KT 33/10 A2989 RMK A01 T03290104  RH  025%=      5-min Rain = 0
KWE2 160007Z 14011KT 33/10 A2989 RMK A01 T03290102  RH  025%=      5-min Rain = 0
KWE2 160008Z 13010KT 33/10 A2989 RMK A01 T03290103  RH  025%=      5-min Rain = 0
KWE2 160009Z 13010KT 33/10 A2989 RMK A01 T03280102  RH  025%=      5-min Rain = 0
KWE2 160010Z 13009KT 33/10 A2989 RMK A01 T03280102  RH  025%=      5-min Rain = 0
KWE2 160011Z 13011KT 33/10 A2989 RMK A01 T03270101  RH  025%=      5-min Rain = 0
KWE2 160012Z 11008KT 33/10 A299 RMK A01 T03270101  RH  025%=      5-min Rain = 0
KWE2 160013Z 09006KT 33/13 A299 RMK A01 T03270126  RH  030%=      5-min Rain = 0
KWE2 160014Z 09008KT 32/13 A299 RMK A01 T03210134  RH  032%=      5-min Rain = 0
KWE2 160015Z 08008KT 32/15 A299 RMK A01 T03160149  RH  036%=      5-min Rain = 0
KWE2 160016Z 08011G18KT 31/15 A299 RMK A01 T03110148  RH  037%=      5-min Rain = 0
KWE2 160017Z 10014KT 31/14 A299 RMK A01 T03090144  RH  037%=      5-min Rain = 0
KWE2 160018Z 09014KT 31/15 A299 RMK A01 T03080150  RH  038%=      5-min Rain = 0
KWE2 160019Z 08015G20KT 31/15 A299 RMK A01 T03050152  RH  040%=      5-min Rain = 0
KWE2 160020Z 08017KT 30/15 A299 RMK A01 T03000147  RH  039%=      5-min Rain = 0
KWE2 160021Z 07014G19KT 30/14 A299 RMK A01 T02970144  RH  039%=      5-min Rain = 0
KWE2 160022Z 08015G20KT 30/14 A299 RMK A01 T02950143  RH  039%=      5-min Rain = 0
KWE2 160023Z 07014KT 29/14 A299 RMK A01 T02940142  RH  040%=      5-min Rain = 0
KWE2 160024Z 08010KT 29/14 A299 RMK A01 T02920141  RH  040%=      5-min Rain = 0
KWE2 160025Z 08012KT 29/14 A299 RMK A01 T02930140  RH  039%=      5-min Rain = 0
KWE2 160026Z 08014KT 29/14 A299 RMK A01 T02930138  RH  039%=      5-min Rain = 0
KWE2 160027Z 08013KT 29/14 A299 RMK A01 T02930138  RH  039%=      5-min Rain = 0
KWE2 160028Z 09013KT 29/14 A299 RMK A01 T02920137  RH  039%=      5-min Rain = 0
KWE2 160029Z 09015KT 29/14 A2991 RMK A01 T02920138  RH  039%=      5-min Rain = 0
KWE2 160030Z 09015KT 29/14 A2991 RMK A01 T02910137  RH  039%=      5-min Rain = 0
KWE2 160031Z 09016KT 29/14 A2991 RMK A01 T02910136  RH  039%=      5-min Rain = 0
KWE2 160032Z 09015KT 29/14 A2991 RMK A01 T02900136  RH  039%=      5-min Rain = 0
KWE2 160033Z 09013KT 29/14 A2991 RMK A01 T02900137  RH  039%=      5-min Rain = 0
KWE2 160034Z 09013KT 29/14 A2991 RMK A01 T02900138  RH  039%=      5-min Rain = 0
KWE2 160035Z 10017KT 29/14 A2991 RMK A01 T02910139  RH  039%=      5-min Rain = 0
KWE2 160036Z 09017KT 29/14 A2991 RMK A01 T02910140  RH  040%=      5-min Rain = 0
KWE2 160037Z 09019KT 29/14 A2991 RMK A01 T02910140  RH  040%=      5-min Rain = 0
KWE2 160038Z 10018KT 29/14 A2991 RMK A01 T02900140  RH  040%=      5-min Rain = 0
KWE2 160039Z 10017G22KT 29/14 A2991 RMK A01 T02890142  RH  041%=      5-min Rain = 0
KWE2 160040Z 10017KT 29/14 A2991 RMK A01 T02880144  RH  041%=      5-min Rain = 0
KWE2 160041Z 10016G22KT 29/15 A2991 RMK A01 T02870145  RH  042%=      5-min Rain = 0
KWE2 160042Z 10016KT 29/15 A2991 RMK A01 T02880146  RH  042%=      5-min Rain = 0
KWE2 160043Z 11018KT 29/15 A2991 RMK A01 T02880147  RH  042%=      5-min Rain = 0
KWE2 160044Z 12019G27KT 29/15 A2991 RMK A01 T02880145  RH  042%=      5-min Rain = 0
KWE2 160045Z 12021KT 29/15 A2991 RMK A01 T02880147  RH  042%=      5-min Rain = 0
KWE2 160046Z 11023G28KT 29/15 A2991 RMK A01 T02870150  RH  043%=      5-min Rain = 0
KWE2 160047Z 12025G30KT 28/15 A2991 RMK A01 T02840151  RH  044%=      5-min Rain = 0
KWE2 160048Z 12024KT 28/15 A2991 RMK A01 T02800152  RH  046%=      5-min Rain = 0
KWE2 160049Z 12024KT 28/15 A2991 RMK A01 T02780151  RH  046%=      5-min Rain = 0
KWE2 160050Z 12024KT 28/15 A2991 RMK A01 T02760150  RH  046%=      5-min Rain = 0
KWE2 160051Z 11025KT 27/15 A2991 RMK A01 T02740149  RH  046%=      5-min Rain = 0
KWE2 160052Z 11022KT 27/15 A2991 RMK A01 T02730148  RH  046%=      5-min Rain = 0
KWE2 160053Z 12018KT 27/15 A2991 RMK A01 T02720147  RH  046%=      5-min Rain = 0
KWE2 160054Z 12021KT 27/15 A2991 RMK A01 T02720148  RH  047%=      5-min Rain = 0
KWE2 160055Z 12022KT 27/15 A2991 RMK A01 T02710148  RH  047%=      5-min Rain = 0
KWE2 160056Z 13022KT 27/15 A2991 RMK A01 T02700147  RH  047%=      5-min Rain = 0
KWE2 160057Z 12023KT 27/14 A2991 RMK A01 T02690144  RH  046%=      5-min Rain = 0
KWE2 160058Z 12023KT 27/14 A2992 RMK A01 T02680139  RH  045%=      5-min Rain = 0
KWE2 160059Z 12021G27KT 27/14 A2992 RMK A01 T02680137  RH  045%=      5-min Rain = 0
KWE2 160100Z 12023G28KT 27/13 A2992 RMK A01 T02670134  RH  044%=      5-min Rain = 0
KWE2 160101Z 12020KT 27/13 A2992 RMK A01 T02660131  RH  043%=      5-min Rain = 0
KWE2 160102Z 12021KT 27/13 A2992 RMK A01 T02660129  RH  043%=      5-min Rain = 0
KWE2 160103Z 12021KT 27/13 A2992 RMK A01 T02660125  RH  042%=      5-min Rain = 0
KWE2 160104Z 12019KT 27/13 A2992 RMK A01 T02660125  RH  041%=      5-min Rain = 0
KWE2 160105Z 12020KT 27/12 A2992 RMK A01 T02660124  RH  041%=      5-min Rain = 0
KWE2 160106Z 12019G24KT 27/12 A2992 RMK A01 T02660124  RH  041%=      5-min Rain = 0
KWE2 160107Z 12020KT 27/12 A2992 RMK A01 T02660122  RH  041%=      5-min Rain = 0
KWE2 160108Z 12021KT 27/12 A2992 RMK A01 T02660120  RH  040%=      5-min Rain = 0
KWE2 160109Z 12021KT 27/12 A2992 RMK A01 T02660118  RH  040%=      5-min Rain = 0
KWE2 160110Z 12021KT 27/12 A2992 RMK A01 T02660117  RH  040%=      5-min Rain = 0
KWE2 160111Z 12019KT 27/12 A2992 RMK A01 T02660116  RH  039%=      5-min Rain = 0
KWE2 160112Z 13018KT 27/12 A2992 RMK A01 T02660116  RH  039%=      5-min Rain = 0
KWE2 160113Z 12017G23KT 27/12 A2992 RMK A01 T02650115  RH  039%=      5-min Rain = 0
KWE2 160114Z 12018KT 27/11 A2992 RMK A01 T02650114  RH  039%=      5-min Rain = 0
KWE2 160115Z 12018KT 27/11 A2992 RMK A01 T02650112  RH  039%=      5-min Rain = 0
KWE2 160116Z 13018G23KT 27/11 A2992 RMK A01 T02650112  RH  039%=      5-min Rain = 0
KWE2 160117Z 13015KT 26/11 A2992 RMK A01 T02640112  RH  039%=      5-min Rain = 0
KWE2 160118Z 13016G21KT 26/11 A2992 RMK A01 T02640111  RH  038%=      5-min Rain = 0
KWE2 160119Z 13018KT 26/11 A2992 RMK A01 T02640110  RH  038%=      5-min Rain = 0
KWE2 160120Z 13017KT 26/11 A2992 RMK A01 T02640109  RH  038%=      5-min Rain = 0
KWE2 160121Z 13019KT 26/11 A2992 RMK A01 T02640108  RH  038%=      5-min Rain = 0
KWE2 160122Z 13016KT 26/11 A2992 RMK A01 T02640108  RH  038%=      5-min Rain = 0
KWE2 160123Z 13018KT 26/11 A2992 RMK A01 T02630108  RH  038%=      5-min Rain = 0
KWE2 160124Z 13016KT 26/11 A2992 RMK A01 T02630107  RH  037%=      5-min Rain = 0
KWE2 160125Z 13016KT 26/11 A2992 RMK A01 T02630107  RH  037%=      5-min Rain = 0
KWE2 160126Z 13017KT 26/11 A2992 RMK A01 T02630106  RH  037%=      5-min Rain = 0
KWE2 160127Z 13016KT 26/11 A2992 RMK A01 T02620105  RH  037%=      5-min Rain = 0
KWE2 160128Z 13016KT 26/11 A2992 RMK A01 T02620105  RH  037%=      5-min Rain = 0
KWE2 160129Z 13015KT 26/11 A2992 RMK A01 T02620105  RH  037%=      5-min Rain = 0
KWE2 160130Z 13014KT 26/11 A2992 RMK A01 T02620105  RH  037%=      5-min Rain = 0
KWE2 160131Z 13013KT 26/11 A2992 RMK A01 T02610105  RH  038%=      5-min Rain = 0
KWE2 160132Z 13013KT 26/11 A2992 RMK A01 T02600105  RH  038%=      5-min Rain = 0
KWE2 160133Z 14012KT 26/11 A2992 RMK A01 T02600105  RH  038%=      5-min Rain = 0
KWE2 160134Z 14013KT 26/11 A2992 RMK A01 T02600105  RH  038%=      5-min Rain = 0
KWE2 160135Z 14013KT 26/11 A2992 RMK A01 T02600105  RH  038%=      5-min Rain = 0
KWE2 160136Z 14015KT 26/10 A2992 RMK A01 T02600104  RH  038%=      5-min Rain = 0
KWE2 160137Z 14013KT 26/10 A2992 RMK A01 T02590104  RH  038%=      5-min Rain = 0
KWE2 160138Z 14012KT 26/10 A2992 RMK A01 T02590104  RH  038%=      5-min Rain = 0
KWE2 160139Z 14013KT 26/10 A2992 RMK A01 T02590104  RH  038%=      5-min Rain = 0
KWE2 160140Z 14013KT 26/10 A2992 RMK A01 T02590103  RH  038%=      5-min Rain = 0
KWE2 160141Z 14013KT 26/10 A2992 RMK A01 T02580102  RH  037%=      5-min Rain = 0
KWE2 160142Z 14013KT 26/10 A2992 RMK A01 T02580102  RH  037%=      5-min Rain = 0
KWE2 160143Z 14013KT 26/10 A2992 RMK A01 T02580102  RH  038%=      5-min Rain = 0
KWE2 160144Z 14012KT 26/10 A2992 RMK A01 T02580103  RH  038%=      5-min Rain = 0
KWE2 160145Z 14015KT 26/11 A2992 RMK A01 T02580107  RH  039%=      5-min Rain = 0
KWE2 160146Z 14014KT 26/11 A2992 RMK A01 T02580110  RH  040%=      5-min Rain = 0
KWE2 160147Z 14014KT 26/11 A2992 RMK A01 T02580112  RH  040%=      5-min Rain = 0
KWE2 160148Z 14013KT 26/11 A2992 RMK A01 T02580114  RH  040%=      5-min Rain = 0
KWE2 160149Z 14012KT 26/12 A2992 RMK A01 T02570115  RH  041%=      5-min Rain = 0
KWE2 160150Z 14013KT 26/12 A2992 RMK A01 T02570118  RH  042%=      5-min Rain = 0
KWE2 160151Z 14014KT 26/12 A2992 RMK A01 T02570121  RH  043%=      5-min Rain = 0
KWE2 160152Z 14013KT 26/12 A2993 RMK A01 T02570121  RH  043%=      5-min Rain = 0
KWE2 160153Z 13013KT 26/12 A2993 RMK A01 T02570120  RH  043%=      5-min Rain = 0
KWE2 160154Z 13015KT 26/12 A2992 RMK A01 T02560117  RH  042%=      5-min Rain = 0
KWE2 160155Z 14016KT 26/11 A2992 RMK A01 T02570114  RH  041%=      5-min Rain = 0
KWE2 160156Z 13016KT 26/11 A2992 RMK A01 T02570113  RH  041%=      5-min Rain = 0
KWE2 160157Z 14016KT 26/11 A2993 RMK A01 T02570112  RH  040%=      5-min Rain = 0
KWE2 160158Z 14015KT 26/11 A2992 RMK A01 T02560109  RH  040%=      5-min Rain = 0
KWE2 160159Z 13015KT 26/11 A2992 RMK A01 T02570107  RH  039%=      5-min Rain = 0
KWE2 160200Z 13015KT 26/11 A2993 RMK A01 T02560106  RH  039%=      5-min Rain = 0
KWE2 160201Z 13015KT 26/10 A2993 RMK A01 T02560103  RH  038%=      5-min Rain = 0
KWE2 160202Z 13016KT 26/10 A2993 RMK A01 T02560102  RH  038%=      5-min Rain = 0
KWE2 160203Z 13015KT 26/10 A2993 RMK A01 T02560102  RH  038%=      5-min Rain = 0
KWE2 160204Z 13015KT 26/10 A2993 RMK A01 T02560101  RH  038%=      5-min Rain = 0
KWE2 160205Z 13017KT 26/10 A2993 RMK A01 T02550100  RH  038%=      5-min Rain = 0
KWE2 160206Z 13015KT 26/10 A2993 RMK A01 T02550100  RH  037%=      5-min Rain = 0
KWE2 160207Z 13016KT 26/10 A2993 RMK A01 T02550099  RH  037%=      5-min Rain = 0
KWE2 160208Z 13015KT 26/10 A2993 RMK A01 T02550099  RH  037%=      5-min Rain = 0
KWE2 160209Z 13015KT 26/10 A2993 RMK A01 T02550098  RH  037%=      5-min Rain = 0
KWE2 160210Z 13014KT 25/10 A2993 RMK A01 T02540098  RH  037%=      5-min Rain = 0
KWE2 160211Z 13015KT 25/10 A2993 RMK A01 T02530097  RH  037%=      5-min Rain = 0
KWE2 160212Z 13015KT 25/10 A2993 RMK A01 T02530097  RH  037%=      5-min Rain = 0
KWE2 160213Z 13014KT 25/10 A2994 RMK A01 T02530096  RH  037%=      5-min Rain = 0
KWE2 160214Z 13013KT 25/10 A2994 RMK A01 T02530097  RH  037%=      5-min Rain = 0
KWE2 160215Z 13015KT 25/10 A2994 RMK A01 T02520096  RH  037%=      5-min Rain = 0
KWE2 160216Z 13014KT 25/10 A2994 RMK A01 T02520096  RH  037%=      5-min Rain = 0
KWE2 160217Z 13012KT 25/10 A2994 RMK A01 T02520096  RH  037%=      5-min Rain = 0
KWE2 160218Z 13014KT 25/10 A2994 RMK A01 T02520095  RH  037%=      5-min Rain = 0
KWE2 160219Z 13014KT 25/10 A2994 RMK A01 T02510096  RH  037%=      5-min Rain = 0
KWE2 160220Z 13013KT 25/10 A2994 RMK A01 T02510096  RH  037%=      5-min Rain = 0
KWE2 160221Z 13012KT 25/10 A2994 RMK A01 T02510095  RH  037%=      5-min Rain = 0
KWE2 160222Z 13012KT 25/10 A2994 RMK A01 T02500095  RH  037%=      5-min Rain = 0
KWE2 160223Z 13012KT 25/10 A2994 RMK A01 T02510095  RH  037%=      5-min Rain = 0
KWE2 160224Z 14011KT 25/10 A2994 RMK A01 T02500095  RH  037%=      5-min Rain = 0
KWE2 160225Z 14012KT 25/10 A2995 RMK A01 T02490095  RH  038%=      5-min Rain = 0
KWE2 160226Z 13011KT 25/10 A2995 RMK A01 T02490095  RH  038%=      5-min Rain = 0
KWE2 160227Z 13010KT 25/10 A2995 RMK A01 T02490095  RH  038%=      5-min Rain = 0
KWE2 160228Z 13010KT 25/10 A2995 RMK A01 T02480095  RH  038%=      5-min Rain = 0
KWE2 160229Z 13010KT 25/10 A2995 RMK A01 T02470095  RH  038%=      5-min Rain = 0
KWE2 160230Z 13010KT 25/10 A2995 RMK A01 T02470095  RH  038%=      5-min Rain = 0
KWE2 160231Z 13010KT 25/10 A2995 RMK A01 T02470095  RH  038%=      5-min Rain = 0
KWE2 160232Z 12009KT 25/10 A2995 RMK A01 T02470095  RH  038%=      5-min Rain = 0
KWE2 160233Z 12009KT 25/10 A2995 RMK A01 T02470095  RH  038%=      5-min Rain = 0
KWE2 160234Z 12008KT 25/10 A2995 RMK A01 T02460095  RH  038%=      5-min Rain = 0
KWE2 160235Z 12010KT 25/10 A2995 RMK A01 T02460096  RH  039%=      5-min Rain = 0
KWE2 160236Z 11009KT 25/10 A2996 RMK A01 T02450095  RH  039%=      5-min Rain = 0
KWE2 160237Z 11009KT 24/10 A2996 RMK A01 T02440095  RH  039%=      5-min Rain = 0
KWE2 160238Z 11010KT 24/09 A2996 RMK A01 T02440094  RH  039%=      5-min Rain = 0
KWE2 160239Z 11010KT 24/09 A2996 RMK A01 T02430094  RH  039%=      5-min Rain = 0
KWE2 160240Z 11009KT 24/09 A2996 RMK A01 T02430093  RH  039%=      5-min Rain = 0
KWE2 160241Z 11010KT 24/09 A2996 RMK A01 T02430093  RH  039%=      5-min Rain = 0
KWE2 160242Z 11011KT 24/09 A2996 RMK A01 T02420093  RH  039%=      5-min Rain = 0
KWE2 160243Z 11010KT 24/09 A2996 RMK A01 T02420093  RH  039%=      5-min Rain = 0
KWE2 160244Z 11010KT 24/09 A2996 RMK A01 T02420093  RH  039%=      5-min Rain = 0
KWE2 160245Z 11011KT 24/09 A2996 RMK A01 T02420093  RH  039%=      5-min Rain = 0
KWE2 160246Z 11010KT 24/09 A2996 RMK A01 T02420093  RH  039%=      5-min Rain = 0
KWE2 160247Z 11011KT 24/09 A2996 RMK A01 T02410093  RH  039%=      5-min Rain = 0
KWE2 160248Z 11010KT 24/09 A2996 RMK A01 T02410093  RH  039%=      5-min Rain = 0
KWE2 160249Z 11010KT 24/09 A2996 RMK A01 T02410094  RH  039%=      5-min Rain = 0
KWE2 160250Z 11010KT 24/09 A2996 RMK A01 T02400094  RH  039%=      5-min Rain = 0
KWE2 160251Z 11011KT 24/09 A2996 RMK A01 T02400093  RH  039%=      5-min Rain = 0
KWE2 160252Z 11011KT 24/09 A2997 RMK A01 T02410093  RH  039%=      5-min Rain = 0
KWE2 160253Z 10011KT 24/09 A2997 RMK A01 T02410093  RH  039%=      5-min Rain = 0
KWE2 160254Z 11012KT 24/09 A2997 RMK A01 T02420094  RH  039%=      5-min Rain = 0
KWE2 160255Z 11012KT 24/09 A2997 RMK A01 T02420093  RH  039%=      5-min Rain = 0
KWE2 160256Z 11012KT 24/09 A2997 RMK A01 T02430094  RH  039%=      5-min Rain = 0
KWE2 160257Z 11011KT 24/09 A2997 RMK A01 T02430094  RH  039%=      5-min Rain = 0
KWE2 160258Z 11011KT 24/09 A2997 RMK A01 T02420094  RH  039%=      5-min Rain = 0
KWE2 160259Z 11012KT 24/09 A2998 RMK A01 T02420094  RH  039%=      5-min Rain = 0
KWE2 160300Z 12013KT 24/09 A2998 RMK A01 T02410094  RH  039%=      5-min Rain = 0
KWE2 160301Z 12013KT 24/09 A2998 RMK A01 T02420094  RH  039%=      5-min Rain = 0
KWE2 160302Z 12011KT 24/09 A2998 RMK A01 T02430094  RH  039%=      5-min Rain = 0
KWE2 160303Z 12011KT 24/10 A2998 RMK A01 T02430096  RH  039%=      5-min Rain = 0
KWE2 160304Z 12011KT 24/10 A2998 RMK A01 T02420096  RH  040%=      5-min Rain = 0
KWE2 160305Z 12010KT 24/10 A2998 RMK A01 T02410096  RH  040%=      5-min Rain = 0
KWE2 160306Z 12011KT 24/10 A2998 RMK A01 T02410095  RH  040%=      5-min Rain = 0
KWE2 160307Z 12011KT 24/10 A2998 RMK A01 T02400095  RH  040%=      5-min Rain = 0
KWE2 160308Z 12012KT 24/10 A2998 RMK A01 T02400095  RH  040%=      5-min Rain = 0
KWE2 160309Z 12011KT 24/10 A2998 RMK A01 T02390095  RH  040%=      5-min Rain = 0
KWE2 160310Z 11011KT 24/10 A2998 RMK A01 T02390095  RH  040%=      5-min Rain = 0
KWE2 160311Z 11011KT 24/10 A2998 RMK A01 T02380095  RH  040%=      5-min Rain = 0
KWE2 160312Z 11010KT 24/09 A2998 RMK A01 T02370094  RH  040%=      5-min Rain = 0
KWE2 160313Z 11010KT 24/09 A2999 RMK A01 T02360094  RH  040%=      5-min Rain = 0
KWE2 160314Z 12011KT 24/09 A2999 RMK A01 T02360094  RH  040%=      5-min Rain = 0
KWE2 160315Z 12009KT 24/09 A2999 RMK A01 T02360094  RH  040%=      5-min Rain = 0
KWE2 160316Z 12010KT 24/09 A2999 RMK A01 T02350094  RH  041%=      5-min Rain = 0
KWE2 160317Z 12010KT 24/09 A2999 RMK A01 T02350094  RH  041%=      5-min Rain = 0
KWE2 160318Z 12010KT 24/09 A2999 RMK A01 T02350094  RH  041%=      5-min Rain = 0
KWE2 160319Z 12010KT 23/09 A2999 RMK A01 T02340094  RH  041%=      5-min Rain = 0
KWE2 160320Z 12010KT 24/09 A2999 RMK A01 T02350094  RH  041%=      5-min Rain = 0
KWE2 160321Z 13010KT 24/10 A2999 RMK A01 T02350095  RH  041%=      5-min Rain = 0
KWE2 160322Z 13010KT 24/09 A2999 RMK A01 T02350094  RH  041%=      5-min Rain = 0
KWE2 160323Z 12010KT 23/09 A2999 RMK A01 T02340094  RH  041%=      5-min Rain = 0
KWE2 160324Z 12010KT 24/10 A2999 RMK A01 T02350095  RH  041%=      5-min Rain = 0
KWE2 160325Z 12009KT 23/10 A2999 RMK A01 T02340095  RH  041%=      5-min Rain = 0
KWE2 160326Z 12010KT 23/10 A2999 RMK A01 T02340095  RH  041%=      5-min Rain = 0
KWE2 160327Z 12010KT 23/10 A2999 RMK A01 T02340095  RH  041%=      5-min Rain = 0
KWE2 160328Z 12010KT 23/10 A2999 RMK A01 T02340095  RH  041%=      5-min Rain = 0
KWE2 160329Z 12010KT 23/10 A2999 RMK A01 T02340097  RH  042%=      5-min Rain = 0
KWE2 160330Z 12012KT 23/10 A2999 RMK A01 T02340097  RH  042%=      5-min Rain = 0
KWE2 160331Z 12011KT 23/10 A2999 RMK A01 T02330098  RH  042%=      5-min Rain = 0
KWE2 160332Z 12012KT 23/10 A2999 RMK A01 T02340098  RH  042%=      5-min Rain = 0
KWE2 160333Z 12011KT 23/10 A2999 RMK A01 T02340099  RH  042%=      5-min Rain = 0
KWE2 160334Z 12010KT 24/10 A2999 RMK A01 T02350099  RH  042%=      5-min Rain = 0
KWE2 160335Z 11010KT 23/10 A2999 RMK A01 T02340099  RH  042%=      5-min Rain = 0
KWE2 160336Z 11011KT 23/10 A2999 RMK A01 T02340099  RH  042%=      5-min Rain = 0
KWE2 160337Z 11010KT 23/10 A2999 RMK A01 T02340099  RH  042%=      5-min Rain = 0
KWE2 160338Z 11010KT 23/10 A2999 RMK A01 T02330099  RH  042%=      5-min Rain = 0
KWE2 160339Z 11010KT 23/10 A2999 RMK A01 T02330100  RH  043%=      5-min Rain = 0
KWE2 160340Z 11010KT 23/10 A2999 RMK A01 T02320103  RH  044%=      5-min Rain = 0
KWE2 160341Z 11011KT 23/10 A2999 RMK A01 T02320104  RH  044%=      5-min Rain = 0
KWE2 160342Z 11010KT 23/11 A2999 RMK A01 T02320105  RH  045%=      5-min Rain = 0
KWE2 160343Z 11010KT 23/11 A2999 RMK A01 T02320106  RH  045%=      5-min Rain = 0
KWE2 160344Z 11011KT 23/11 A2999 RMK A01 T02320106  RH  045%=      5-min Rain = 0
KWE2 160345Z 11010KT 23/11 A2999 RMK A01 T02320106  RH  045%=      5-min Rain = 0
KWE2 160346Z 11009KT 23/11 A2999 RMK A01 T02320106  RH  045%=      5-min Rain = 0
KWE2 160347Z 11009KT 23/11 A2999 RMK A01 T02320106  RH  045%=      5-min Rain = 0
KWE2 160348Z 11010KT 23/11 A2999 RMK A01 T02320107  RH  045%=      5-min Rain = 0
KWE2 160349Z 11009KT 23/11 A2999 RMK A01 T02320107  RH  045%=      5-min Rain = 0
KWE2 160350Z 11008KT 23/11 A2999 RMK A01 T02320107  RH  045%=      5-min Rain = 0
KWE2 160351Z 11008KT 23/11 A2999 RMK A01 T02320107  RH  045%=      5-min Rain = 0
KWE2 160352Z 12009KT 23/11 A2999 RMK A01 T02320107  RH  045%=      5-min Rain = 0
KWE2 160353Z 12009KT 23/11 A2999 RMK A01 T02310107  RH  045%=      5-min Rain = 0
KWE2 160354Z 11009KT 23/11 A2999 RMK A01 T02310107  RH  045%=      5-min Rain = 0
KWE2 160355Z 12009KT 23/11 A2999 RMK A01 T02310107  RH  045%=      5-min Rain = 0
KWE2 160356Z 11009KT 23/11 A2999 RMK A01 T02310106  RH  045%=      5-min Rain = 0
KWE2 160357Z 11008KT 23/11 A2999 RMK A01 T02310107  RH  045%=      5-min Rain = 0
KWE2 160358Z 11007KT 23/11 A2999 RMK A01 T02300106  RH  045%=      5-min Rain = 0
KWE2 160359Z 12008KT 23/11 A2999 RMK A01 T02300106  RH  046%=      5-min Rain = 0
KWE2 160400Z 12008KT 23/11 A2999 RMK A01 T02290107  RH  046%=      5-min Rain = 0
KWE2 160401Z 12008KT 23/11 A2999 RMK A01 T02300107  RH  046%=      5-min Rain = 0
KWE2 160402Z 12008KT 23/11 A2999 RMK A01 T02290107  RH  046%=      5-min Rain = 0
KWE2 160403Z 12009KT 23/11 A2999 RMK A01 T02290108  RH  046%=      5-min Rain = 0
KWE2 160404Z 12009KT 23/11 A2999 RMK A01 T02290110  RH  047%=      5-min Rain = 0
KWE2 160405Z 12009KT 23/11 A2999 RMK A01 T02290111  RH  047%=      5-min Rain = 0
KWE2 160406Z 12008KT 23/11 A2999 RMK A01 T02290111  RH  047%=      5-min Rain = 0
KWE2 160407Z 12009KT 23/11 A2999 RMK A01 T02290112  RH  048%=      5-min Rain = 0
KWE2 160408Z 12009KT 23/11 A2999 RMK A01 T02280112  RH  048%=      5-min Rain = 0
KWE2 160409Z 12009KT 23/11 A2999 RMK A01 T02280112  RH  048%=      5-min Rain = 0
KWE2 160410Z 12009KT 23/11 A2999 RMK A01 T02280112  RH  048%=      5-min Rain = 0
KWE2 160411Z 12009KT 23/11 A2999 RMK A01 T02280112  RH  048%=      5-min Rain = 0
KWE2 160412Z 12010KT 23/11 A2999 RMK A01 T02280112  RH  048%=      5-min Rain = 0
KWE2 160413Z 12009KT 23/11 A2999 RMK A01 T02270113  RH  048%=      5-min Rain = 0
KWE2 160414Z 12010KT 23/11 A2999 RMK A01 T02270114  RH  049%=      5-min Rain = 0
KWE2 160415Z 12011KT 23/12 A2999 RMK A01 T02270115  RH  049%=      5-min Rain = 0
KWE2 160416Z 12010KT 23/12 A2999 RMK A01 T02280116  RH  049%=      5-min Rain = 0
KWE2 160417Z 12012KT 23/12 A2999 RMK A01 T02280117  RH  049%=      5-min Rain = 0
KWE2 160418Z 12013KT 23/12 A2999 RMK A01 T02280118  RH  050%=      5-min Rain = 0
KWE2 160419Z 12013KT 23/12 A2999 RMK A01 T02280119  RH  050%=      5-min Rain = 0
KWE2 160420Z 12013KT 23/12 A2999 RMK A01 T02290120  RH  050%=      5-min Rain = 0
KWE2 160421Z 12012KT 23/12 A2999 RMK A01 T02290121  RH  051%=      5-min Rain = 0
KWE2 160422Z 12014KT 23/12 A2999 RMK A01 T02280121  RH  051%=      5-min Rain = 0
KWE2 160423Z 12014KT 23/12 A2999 RMK A01 T02290123  RH  051%=      5-min Rain = 0
KWE2 160424Z 11012KT 23/12 A2999 RMK A01 T02290123  RH  051%=      5-min Rain = 0
KWE2 160425Z 11013KT 23/12 A2999 RMK A01 T02290123  RH  051%=      5-min Rain = 0
KWE2 160426Z 12013KT 23/12 A2999 RMK A01 T02290124  RH  051%=      5-min Rain = 0
KWE2 160427Z 11014KT 23/12 A2999 RMK A01 T02290124  RH  052%=      5-min Rain = 0
KWE2 160428Z 11012KT 23/13 A30 RMK A01 T02300125  RH  052%=      5-min Rain = 0
KWE2 160429Z 11013KT 23/13 A30 RMK A01 T02290125  RH  052%=      5-min Rain = 0
KWE2 160430Z 11013KT 23/13 A30 RMK A01 T02290125  RH  052%=      5-min Rain = 0
KWE2 160431Z 11013KT 23/13 A30 RMK A01 T02300126  RH  052%=      5-min Rain = 0
KWE2 160432Z 11014KT 23/13 A30 RMK A01 T02300126  RH  052%=      5-min Rain = 0
KWE2 160433Z 11013KT 23/13 A30 RMK A01 T02300126  RH  052%=      5-min Rain = 0
KWE2 160434Z 10014KT 23/13 A30 RMK A01 T02300127  RH  052%=      5-min Rain = 0
KWE2 160435Z 10014KT 23/13 A30 RMK A01 T02300126  RH  052%=      5-min Rain = 0
KWE2 160436Z 10015KT 23/13 A30 RMK A01 T02300126  RH  052%=      5-min Rain = 0
KWE2 160437Z 10013KT 23/13 A30 RMK A01 T02300126  RH  052%=      5-min Rain = 0
KWE2 160438Z 10011KT 23/13 A30 RMK A01 T02300126  RH  052%=      5-min Rain = 0
KWE2 160439Z 10012KT 23/13 A30 RMK A01 T02300126  RH  052%=      5-min Rain = 0
KWE2 160440Z 10013KT 23/13 A30 RMK A01 T02300127  RH  052%=      5-min Rain = 0
KWE2 160441Z 11013KT 23/13 A30 RMK A01 T02290127  RH  052%=      5-min Rain = 0
KWE2 160442Z 11013KT 23/13 A30 RMK A01 T02290126  RH  052%=      5-min Rain = 0
KWE2 160443Z 11014KT 23/13 A30 RMK A01 T02290126  RH  052%=      5-min Rain = 0
KWE2 160444Z 11012KT 23/13 A30 RMK A01 T02280126  RH  052%=      5-min Rain = 0
KWE2 160445Z 11013KT 23/13 A30 RMK A01 T02290126  RH  052%=      5-min Rain = 0
KWE2 160446Z 11012KT 23/13 A30 RMK A01 T02280126  RH  053%=      5-min Rain = 0
KWE2 160447Z 11011KT 23/13 A30 RMK A01 T02280126  RH  053%=      5-min Rain = 0
KWE2 160448Z 11012KT 23/13 A30 RMK A01 T02270126  RH  053%=      5-min Rain = 0
KWE2 160449Z 11012KT 23/13 A30 RMK A01 T02270127  RH  053%=      5-min Rain = 0
KWE2 160450Z 11010KT 23/13 A30 RMK A01 T02260127  RH  053%=      5-min Rain = 0
KWE2 160451Z 10011KT 23/13 A2999 RMK A01 T02260126  RH  053%=      5-min Rain = 0
KWE2 160452Z 11010KT 23/13 A30 RMK A01 T02260126  RH  053%=      5-min Rain = 0
KWE2 160453Z 11011KT 23/13 A30 RMK A01 T02250127  RH  054%=      5-min Rain = 0
KWE2 160454Z 11011KT 23/13 A30 RMK A01 T02250127  RH  054%=      5-min Rain = 0
KWE2 160455Z 12011KT 23/13 A30 RMK A01 T02250126  RH  054%=      5-min Rain = 0
KWE2 160456Z 12011KT 23/13 A30 RMK A01 T02250127  RH  054%=      5-min Rain = 0
KWE2 160457Z 11009KT 23/13 A30 RMK A01 T02250127  RH  054%=      5-min Rain = 0
KWE2 160458Z 11010KT 22/13 A30 RMK A01 T02240127  RH  054%=      5-min Rain = 0
KWE2 160459Z 11009KT 22/13 A30 RMK A01 T02240127  RH  054%=      5-min Rain = 0

Page generated in 0.0833 seconds.